PWSweather.com
Personal Weather Stations
Station Observations
DL5ARK
SonnebergDE

SonnebergDE

Lat: 50.34904861, Lon: 11.18112087

Elevation: 1214

Station Type: Selfmade

http://www.sumbarg.de

High Low Average
Temperature 51.0°F10.6°C 35.4°F1.9°C 44.5°F6.9°C
Dew Point 54.2°F12.3°C 40.3°F4.6°C 46.3°F7.9°C
Winds 23.6 mph 38.0 kmh Calm Calm 7.0 mph SW11.3 kmh SW
Wind Gusts 23.6 mph38.0 kmh -- 7.0 mph11.3 kmh
Humidity 94% 67% 83%
Pressure 29.94 in1013.9 mb 29.33 in993.2 mb -
Precipitation 0.64 in16.3 mm - -
Hour Temp Dew Point Humidity Winds Wind Gusts Pressure Precip Precip Rate Daily Precip Total
12:01 AM 45.2°F7.3°C 48.8°F9.3°C 91% 4.8 mph WSW7.7 kmh WSW 4.8 mph7.7 kmh 29.66 in1004.4 mb 0.00 in0.0 mm 0.00 in0.0 mm 0.06 in1.5 mm
12:04 AM 45.2°F7.3°C 48.7°F9.3°C 91% 6.9 mph NNW11.1 kmh NNW 6.9 mph11.1 kmh 29.66 in1004.4 mb 0.00 in0.0 mm 0.00 in0.0 mm 0.06 in1.5 mm
12:07 AM 45.2°F7.3°C 49.1°F9.5°C 92% 3.1 mph NNW5.0 kmh NNW 3.2 mph5.1 kmh 29.64 in1003.7 mb 0.00 in0.0 mm 0.00 in0.0 mm 0.06 in1.5 mm
12:10 AM 45.2°F7.3°C 49.0°F9.4°C 91% 3.6 mph WNW5.8 kmh WNW 3.6 mph5.8 kmh 29.64 in1003.7 mb 0.00 in0.0 mm 0.00 in0.0 mm 0.06 in1.5 mm
12:13 AM 45.3°F7.4°C 48.9°F9.4°C 91% 6.8 mph NNW10.9 kmh NNW 6.8 mph10.9 kmh 29.64 in1003.7 mb 0.00 in0.0 mm 0.00 in0.0 mm 0.06 in1.5 mm
12:16 AM 45.4°F7.4°C 49.1°F9.5°C 92% 4.0 mph NNW6.4 kmh NNW 4.1 mph6.6 kmh 29.64 in1003.7 mb 0.00 in0.0 mm 0.00 in0.0 mm 0.06 in1.5 mm
12:19 AM 45.4°F7.4°C 49.1°F9.5°C 92% 2.8 mph W4.5 kmh W 2.8 mph4.5 kmh 29.64 in1003.7 mb 0.00 in0.0 mm 0.00 in0.0 mm 0.08 in2.0 mm
12:22 AM 45.4°F7.4°C 49.3°F9.6°C 92% 6.4 mph NW10.3 kmh NW 6.4 mph10.3 kmh 29.63 in1003.4 mb 0.00 in0.0 mm 0.00 in0.0 mm 0.08 in2.0 mm
12:25 AM 45.3°F7.4°C 49.0°F9.4°C 92% 5.7 mph WSW9.2 kmh WSW 5.7 mph9.2 kmh 29.63 in1003.4 mb 0.00 in0.0 mm 0.00 in0.0 mm 0.08 in2.0 mm
12:28 AM 45.4°F7.4°C 49.3°F9.6°C 92% 12.5 mph NW20.1 kmh NW 12.6 mph20.3 kmh 29.63 in1003.4 mb 0.00 in0.0 mm 0.00 in0.0 mm 0.08 in2.0 mm
12:31 AM 45.4°F7.4°C 49.5°F9.7°C 92% 4.0 mph NNW6.4 kmh NNW 4.1 mph6.6 kmh 29.63 in1003.4 mb 0.00 in0.0 mm 0.00 in0.0 mm 0.08 in2.0 mm
12:34 AM 45.5°F7.5°C 49.1°F9.5°C 92% 8.1 mph NNW13.0 kmh NNW 8.1 mph13.0 kmh 29.63 in1003.4 mb 0.00 in0.0 mm 0.00 in0.0 mm 0.08 in2.0 mm
12:37 AM 45.5°F7.5°C 49.0°F9.4°C 92% 5.3 mph NW8.5 kmh NW 5.3 mph8.5 kmh 29.62 in1003.0 mb 0.00 in0.0 mm 0.00 in0.0 mm 0.08 in2.0 mm
12:40 AM 45.5°F7.5°C 49.5°F9.7°C 92% 2.8 mph NW4.5 kmh NW 2.9 mph4.7 kmh 29.62 in1003.0 mb 0.00 in0.0 mm 0.00 in0.0 mm 0.10 in2.5 mm
12:43 AM 45.5°F7.5°C 49.5°F9.7°C 92% 4.9 mph NW7.9 kmh NW 4.9 mph7.9 kmh 29.62 in1003.0 mb 0.00 in0.0 mm 0.00 in0.0 mm 0.10 in2.5 mm
12:46 AM 45.6°F7.6°C 49.5°F9.7°C 93% 6.4 mph NW10.3 kmh NW 6.4 mph10.3 kmh 29.62 in1003.0 mb 0.00 in0.0 mm 0.00 in0.0 mm 0.10 in2.5 mm
12:49 AM 45.6°F7.6°C 49.4°F9.7°C 92% 6.0 mph W9.7 kmh W 6.0 mph9.7 kmh 29.61 in1002.7 mb 0.00 in0.0 mm 0.00 in0.0 mm 0.10 in2.5 mm
12:52 AM 45.7°F7.6°C 49.5°F9.7°C 92% 6.5 mph W10.5 kmh W 6.5 mph10.5 kmh 29.61 in1002.7 mb 0.00 in0.0 mm 0.00 in0.0 mm 0.10 in2.5 mm
12:55 AM 45.7°F7.6°C 49.8°F9.9°C 93% 4.4 mph W7.1 kmh W 4.4 mph7.1 kmh 29.60 in1002.4 mb 0.00 in0.0 mm 0.00 in0.0 mm 0.10 in2.5 mm
12:58 AM 45.7°F7.6°C 49.8°F9.9°C 93% 6.8 mph NNW10.9 kmh NNW 6.9 mph11.1 kmh 29.60 in1002.4 mb 0.00 in0.0 mm 0.00 in0.0 mm 0.12 in3.0 mm
01:01 AM 45.7°F7.6°C 49.6°F9.8°C 93% 5.6 mph NNW9.0 kmh NNW 5.7 mph9.2 kmh 29.60 in1002.4 mb 0.00 in0.0 mm 0.00 in0.0 mm 0.12 in3.0 mm
01:07 AM 46.0°F7.8°C 50.2°F10.1°C 93% 5.6 mph W9.0 kmh W 5.7 mph9.2 kmh 29.60 in1002.4 mb 0.00 in0.0 mm 0.00 in0.0 mm 0.12 in3.0 mm
01:10 AM 46.0°F7.8°C 50.0°F10.0°C 93% 8.1 mph W13.0 kmh W 8.1 mph13.0 kmh 29.59 in1002.0 mb 0.00 in0.0 mm 0.00 in0.0 mm 0.12 in3.0 mm
01:13 AM 46.1°F7.8°C 50.2°F10.1°C 93% 6.5 mph NW10.5 kmh NW 6.5 mph10.5 kmh 29.59 in1002.0 mb 0.00 in0.0 mm 0.00 in0.0 mm 0.12 in3.0 mm
01:16 AM 46.1°F7.8°C 50.2°F10.1°C 93% 9.5 mph NW15.3 kmh NW 9.6 mph15.4 kmh 29.59 in1002.0 mb 0.00 in0.0 mm 0.00 in0.0 mm 0.12 in3.0 mm
01:19 AM 46.2°F7.9°C 50.0°F10.0°C 93% 8.5 mph NW13.7 kmh NW 8.6 mph13.8 kmh 29.59 in1002.0 mb 0.00 in0.0 mm 0.00 in0.0 mm 0.12 in3.0 mm
01:22 AM 46.3°F7.9°C 49.9°F9.9°C 92% 3.6 mph W5.8 kmh W 3.6 mph5.8 kmh 29.59 in1002.0 mb 0.00 in0.0 mm 0.00 in0.0 mm 0.12 in3.0 mm
01:25 AM 46.3°F7.9°C 50.3°F10.2°C 93% 6.0 mph W9.7 kmh W 6.0 mph9.7 kmh 29.58 in1001.7 mb 0.00 in0.0 mm 0.00 in0.0 mm 0.14 in3.6 mm
01:28 AM 46.3°F7.9°C 50.3°F10.2°C 93% 6.5 mph W10.5 kmh W 6.5 mph10.5 kmh 29.58 in1001.7 mb 0.00 in0.0 mm 0.00 in0.0 mm 0.14 in3.6 mm
01:31 AM 46.4°F8.0°C 50.4°F10.2°C 93% 5.2 mph NNW8.4 kmh NNW 5.3 mph8.5 kmh 29.57 in1001.4 mb 0.00 in0.0 mm 0.00 in0.0 mm 0.14 in3.6 mm
01:34 AM 46.5°F8.1°C 50.5°F10.3°C 93% 10.9 mph NW17.5 kmh NW 11.0 mph17.7 kmh 29.57 in1001.4 mb 0.00 in0.0 mm 0.00 in0.0 mm 0.16 in4.1 mm
01:37 AM 46.5°F8.1°C 50.5°F10.3°C 93% 12.1 mph WNW19.5 kmh WNW 12.2 mph19.6 kmh 29.57 in1001.4 mb 0.00 in0.0 mm 0.00 in0.0 mm 0.16 in4.1 mm
01:40 AM 46.6°F8.1°C 50.6°F10.3°C 93% 3.6 mph NNW5.8 kmh NNW 3.7 mph6.0 kmh 29.57 in1001.4 mb 0.00 in0.0 mm 0.00 in0.0 mm 0.16 in4.1 mm
01:43 AM 46.6°F8.1°C 50.8°F10.4°C 94% 1.6 mph NNW2.6 kmh NNW 1.6 mph2.6 kmh 29.57 in1001.4 mb 0.00 in0.0 mm 0.00 in0.0 mm 0.16 in4.1 mm
01:46 AM 46.9°F8.3°C 50.8°F10.4°C 93% 4.8 mph W7.7 kmh W 4.9 mph7.9 kmh 29.57 in1001.4 mb 0.00 in0.0 mm 0.00 in0.0 mm 0.16 in4.1 mm
01:49 AM 46.7°F8.2°C 50.6°F10.3°C 93% 6.1 mph W9.8 kmh W 6.1 mph9.8 kmh 29.56 in1001.0 mb 0.00 in0.0 mm 0.00 in0.0 mm 0.16 in4.1 mm
01:52 AM 46.7°F8.2°C 51.1°F10.6°C 93% 4.3 mph WSW6.9 kmh WSW 4.4 mph7.1 kmh 29.56 in1001.0 mb 0.00 in0.0 mm 0.00 in0.0 mm 0.18 in4.6 mm
01:55 AM 46.7°F8.2°C 51.1°F10.6°C 93% 5.2 mph W8.4 kmh W 5.2 mph8.4 kmh 29.55 in1000.7 mb 0.00 in0.0 mm 0.00 in0.0 mm 0.18 in4.6 mm
01:58 AM 46.9°F8.3°C 50.8°F10.4°C 93% 8.1 mph W13.0 kmh W 8.1 mph13.0 kmh 29.55 in1000.7 mb 0.00 in0.0 mm 0.00 in0.0 mm 0.18 in4.6 mm
02:01 AM 46.9°F8.3°C 51.0°F10.6°C 93% 6.3 mph NNW10.1 kmh NNW 6.4 mph10.3 kmh 29.55 in1000.7 mb 0.00 in0.0 mm 0.00 in0.0 mm 0.18 in4.6 mm
02:04 AM 46.9°F8.3°C 50.9°F10.5°C 93% 7.7 mph WNW12.4 kmh WNW 7.8 mph12.6 kmh 29.55 in1000.7 mb 0.00 in0.0 mm 0.00 in0.0 mm 0.18 in4.6 mm
02:07 AM 47.0°F8.3°C 50.8°F10.4°C 93% 4.1 mph NNW6.6 kmh NNW 4.1 mph6.6 kmh 29.55 in1000.7 mb 0.00 in0.0 mm 0.00 in0.0 mm 0.20 in5.1 mm
02:10 AM 47.0°F8.3°C 51.1°F10.6°C 93% 13.5 mph NNW21.7 kmh NNW 13.5 mph21.7 kmh 29.54 in1000.3 mb 0.00 in0.0 mm 0.00 in0.0 mm 0.20 in5.1 mm
02:13 AM 47.1°F8.4°C 51.1°F10.6°C 94% 6.0 mph WNW9.7 kmh WNW 6.1 mph9.8 kmh 29.53 in1000.0 mb 0.00 in0.0 mm 0.00 in0.0 mm 0.20 in5.1 mm
02:19 AM 47.1°F8.4°C 51.3°F10.7°C 94% 8.7 mph WNW14.0 kmh WNW 8.7 mph14.0 kmh 29.53 in1000.0 mb 0.00 in0.0 mm 0.00 in0.0 mm 0.20 in5.1 mm
02:22 AM 47.1°F8.4°C 51.4°F10.8°C 94% 8.1 mph NNW13.0 kmh NNW 8.1 mph13.0 kmh 29.53 in1000.0 mb 0.00 in0.0 mm 0.00 in0.0 mm 0.20 in5.1 mm
02:25 AM 47.2°F8.4°C 51.3°F10.7°C 93% 5.7 mph NNW9.2 kmh NNW 5.7 mph9.2 kmh 29.53 in1000.0 mb 0.00 in0.0 mm 0.00 in0.0 mm 0.20 in5.1 mm
02:28 AM 47.2°F8.4°C 51.4°F10.8°C 94% 9.0 mph NW14.5 kmh NW 9.0 mph14.5 kmh 29.52 in999.7 mb 0.00 in0.0 mm 0.00 in0.0 mm 0.20 in5.1 mm
02:31 AM 47.3°F8.5°C 51.4°F10.8°C 93% 6.1 mph WNW9.8 kmh WNW 6.1 mph9.8 kmh 29.52 in999.7 mb 0.00 in0.0 mm 0.00 in0.0 mm 0.22 in5.6 mm
02:34 AM 47.3°F8.5°C 51.4°F10.8°C 93% 4.0 mph NW6.4 kmh NW 4.1 mph6.6 kmh 29.52 in999.7 mb 0.00 in0.0 mm 0.00 in0.0 mm 0.22 in5.6 mm
02:37 AM 47.4°F8.6°C 51.4°F10.8°C 94% 6.7 mph W10.8 kmh W 6.8 mph10.9 kmh 29.52 in999.7 mb 0.00 in0.0 mm 0.00 in0.0 mm 0.22 in5.6 mm
02:40 AM 47.4°F8.6°C 51.4°F10.8°C 93% 1.2 mph WNW1.9 kmh WNW 1.2 mph1.9 kmh 29.51 in999.3 mb 0.00 in0.0 mm 0.00 in0.0 mm 0.22 in5.6 mm
02:43 AM 47.4°F8.6°C 51.6°F10.9°C 94% 7.7 mph WNW12.4 kmh WNW 7.7 mph12.4 kmh 29.51 in999.3 mb 0.00 in0.0 mm 0.00 in0.0 mm 0.22 in5.6 mm
02:46 AM 47.4°F8.6°C 51.5°F10.8°C 94% 8.8 mph ENE14.2 kmh ENE 8.8 mph14.2 kmh 29.50 in999.0 mb 0.00 in0.0 mm 0.00 in0.0 mm 0.22 in5.6 mm
02:49 AM 47.5°F8.6°C 51.7°F10.9°C 94% 4.4 mph NW7.1 kmh NW 4.5 mph7.2 kmh 29.50 in999.0 mb 0.00 in0.0 mm 0.00 in0.0 mm 0.24 in6.1 mm
02:52 AM 47.5°F8.6°C 51.6°F10.9°C 93% 2.8 mph NNW4.5 kmh NNW 2.8 mph4.5 kmh 29.50 in999.0 mb 0.00 in0.0 mm 0.00 in0.0 mm 0.24 in6.1 mm
02:55 AM 47.5°F8.6°C 51.9°F11.1°C 94% 7.3 mph NNW11.7 kmh NNW 7.4 mph11.9 kmh 29.50 in999.0 mb 0.00 in0.0 mm 0.00 in0.0 mm 0.24 in6.1 mm
02:58 AM 47.6°F8.7°C 51.7°F10.9°C 94% 8.5 mph NW13.7 kmh NW 8.6 mph13.8 kmh 29.49 in998.6 mb 0.00 in0.0 mm 0.00 in0.0 mm 0.24 in6.1 mm
03:01 AM 47.6°F8.7°C 51.7°F10.9°C 94% 9.7 mph NNW15.6 kmh NNW 9.8 mph15.8 kmh 29.49 in998.6 mb 0.00 in0.0 mm 0.00 in0.0 mm 0.24 in6.1 mm
03:04 AM 47.8°F8.8°C 51.7°F10.9°C 94% 9.6 mph NNW15.4 kmh NNW 9.7 mph15.6 kmh 29.49 in998.6 mb 0.00 in0.0 mm 0.00 in0.0 mm 0.26 in6.6 mm
03:07 AM 47.8°F8.8°C 52.0°F11.1°C 94% 11.1 mph W17.9 kmh W 11.2 mph18.0 kmh 29.48 in998.3 mb 0.00 in0.0 mm 0.00 in0.0 mm 0.26 in6.6 mm
03:10 AM 47.8°F8.8°C 52.0°F11.1°C 94% 8.3 mph NNW13.4 kmh NNW 8.4 mph13.5 kmh 29.47 in998.0 mb 0.00 in0.0 mm 0.00 in0.0 mm 0.26 in6.6 mm
03:13 AM 47.8°F8.8°C 51.6°F10.9°C 93% 13.3 mph W21.4 kmh W 13.4 mph21.6 kmh 29.47 in998.0 mb 0.00 in0.0 mm 0.00 in0.0 mm 0.26 in6.6 mm
03:16 AM 47.8°F8.8°C 52.0°F11.1°C 94% 2.4 mph NNW3.9 kmh NNW 2.4 mph3.9 kmh 29.47 in998.0 mb 0.00 in0.0 mm 0.00 in0.0 mm 0.26 in6.6 mm
03:19 AM 47.8°F8.8°C 51.9°F11.1°C 94% 10.0 mph W16.1 kmh W 10.0 mph16.1 kmh 29.47 in998.0 mb 0.00 in0.0 mm 0.00 in0.0 mm 0.28 in7.1 mm
03:22 AM 47.8°F8.8°C 52.1°F11.2°C 94% 11.7 mph 18.8 kmh 11.8 mph19.0 kmh 29.47 in998.0 mb 0.00 in0.0 mm 0.00 in0.0 mm 0.28 in7.1 mm
03:25 AM 47.8°F8.8°C 51.5°F10.8°C 92% 11.5 mph NNW18.5 kmh NNW 11.6 mph18.7 kmh 29.46 in997.6 mb 0.00 in0.0 mm 0.00 in0.0 mm 0.28 in7.1 mm
03:28 AM 47.9°F8.8°C 52.0°F11.1°C 94% 11.2 mph NW18.0 kmh NW 11.3 mph18.2 kmh 29.46 in997.6 mb 0.00 in0.0 mm 0.00 in0.0 mm 0.28 in7.1 mm
03:31 AM 48.0°F8.9°C 52.0°F11.1°C 94% 18.2 mph NNW29.3 kmh NNW 18.3 mph29.5 kmh 29.46 in997.6 mb 0.00 in0.0 mm 0.00 in0.0 mm 0.28 in7.1 mm
03:34 AM 48.0°F8.9°C 51.7°F10.9°C 93% 10.5 mph NNW16.9 kmh NNW 10.6 mph17.1 kmh 29.46 in997.6 mb 0.00 in0.0 mm 0.00 in0.0 mm 0.28 in7.1 mm
03:37 AM 48.0°F8.9°C 52.0°F11.1°C 94% 8.9 mph WNW14.3 kmh WNW 8.9 mph14.3 kmh 29.46 in997.6 mb 0.00 in0.0 mm 0.00 in0.0 mm 0.30 in7.6 mm
03:40 AM 48.0°F8.9°C 52.4°F11.3°C 94% 5.3 mph WNW8.5 kmh WNW 5.3 mph8.5 kmh 29.45 in997.3 mb 0.00 in0.0 mm 0.00 in0.0 mm 0.30 in7.6 mm
03:43 AM 48.1°F8.9°C 52.2°F11.2°C 94% 7.3 mph NW11.7 kmh NW 7.3 mph11.7 kmh 29.45 in997.3 mb 0.00 in0.0 mm 0.00 in0.0 mm 0.30 in7.6 mm
03:46 AM 48.0°F8.9°C 52.3°F11.3°C 94% 8.4 mph W13.5 kmh W 8.4 mph13.5 kmh 29.45 in997.3 mb 0.00 in0.0 mm 0.00 in0.0 mm 0.30 in7.6 mm
03:49 AM 48.1°F8.9°C 52.4°F11.3°C 94% 10.9 mph W17.5 kmh W 11.0 mph17.7 kmh 29.45 in997.3 mb 0.00 in0.0 mm 0.00 in0.0 mm 0.30 in7.6 mm
03:52 AM 48.1°F8.9°C 52.1°F11.2°C 94% 7.7 mph W12.4 kmh W 7.7 mph12.4 kmh 29.45 in997.3 mb 0.00 in0.0 mm 0.00 in0.0 mm 0.30 in7.6 mm
03:55 AM 48.2°F9.0°C 52.4°F11.3°C 94% 10.3 mph W16.6 kmh W 10.5 mph16.9 kmh 29.44 in997.0 mb 0.00 in0.0 mm 0.00 in0.0 mm 0.30 in7.6 mm
03:58 AM 48.2°F9.0°C 52.3°F11.3°C 94% 7.5 mph NNW12.1 kmh NNW 7.6 mph12.2 kmh 29.43 in996.6 mb 0.00 in0.0 mm 0.00 in0.0 mm 0.30 in7.6 mm
04:01 AM 48.2°F9.0°C 52.2°F11.2°C 94% 6.9 mph NW11.1 kmh NW 6.9 mph11.1 kmh 29.43 in996.6 mb 0.00 in0.0 mm 0.00 in0.0 mm 0.30 in7.6 mm
04:04 AM 48.2°F9.0°C 52.5°F11.4°C 94% 5.0 mph WNW8.0 kmh WNW 5.1 mph8.2 kmh 29.43 in996.6 mb 0.00 in0.0 mm 0.00 in0.0 mm 0.30 in7.6 mm
04:07 AM 48.2°F9.0°C 52.4°F11.3°C 93% 10.5 mph NNW16.9 kmh NNW 10.6 mph17.1 kmh 29.43 in996.6 mb 0.00 in0.0 mm 0.00 in0.0 mm 0.32 in8.1 mm
04:10 AM 48.2°F9.0°C 52.6°F11.4°C 94% 4.9 mph WNW7.9 kmh WNW 4.9 mph7.9 kmh 29.42 in996.3 mb 0.00 in0.0 mm 0.00 in0.0 mm 0.32 in8.1 mm
04:13 AM 48.2°F9.0°C 52.7°F11.5°C 94% 12.1 mph NW19.5 kmh NW 12.2 mph19.6 kmh 29.42 in996.3 mb 0.00 in0.0 mm 0.00 in0.0 mm 0.32 in8.1 mm
04:16 AM 48.3°F9.1°C 52.7°F11.5°C 94% 8.5 mph W13.7 kmh W 8.6 mph13.8 kmh 29.41 in995.9 mb 0.00 in0.0 mm 0.00 in0.0 mm 0.32 in8.1 mm
04:19 AM 48.3°F9.1°C 52.6°F11.4°C 94% 12.5 mph NNW20.1 kmh NNW 12.5 mph20.1 kmh 29.41 in995.9 mb 0.00 in0.0 mm 0.00 in0.0 mm 0.32 in8.1 mm
04:22 AM 48.3°F9.1°C 52.5°F11.4°C 94% 15.4 mph W24.8 kmh W 15.4 mph24.8 kmh 29.40 in995.6 mb 0.00 in0.0 mm 0.00 in0.0 mm 0.32 in8.1 mm
04:25 AM 48.4°F9.1°C 52.8°F11.6°C 94% 9.9 mph WNW15.9 kmh WNW 10.0 mph16.1 kmh 29.40 in995.6 mb 0.00 in0.0 mm 0.00 in0.0 mm 0.32 in8.1 mm
04:28 AM 48.4°F9.1°C 52.7°F11.5°C 94% 12.1 mph NNW19.5 kmh NNW 12.1 mph19.5 kmh 29.40 in995.6 mb 0.00 in0.0 mm 0.00 in0.0 mm 0.32 in8.1 mm
04:31 AM 48.5°F9.2°C 52.5°F11.4°C 93% 10.9 mph WNW17.5 kmh WNW 11.0 mph17.7 kmh 29.39 in995.3 mb 0.00 in0.0 mm 0.00 in0.0 mm 0.32 in8.1 mm
04:34 AM 48.5°F9.2°C 52.7°F11.5°C 94% 11.2 mph WSW18.0 kmh WSW 11.2 mph18.0 kmh 29.39 in995.3 mb 0.00 in0.0 mm 0.00 in0.0 mm 0.32 in8.1 mm
04:37 AM 48.5°F9.2°C 52.8°F11.6°C 94% 10.1 mph WNW16.3 kmh WNW 10.1 mph16.3 kmh 29.39 in995.3 mb 0.00 in0.0 mm 0.00 in0.0 mm 0.32 in8.1 mm
04:40 AM 48.7°F9.3°C 52.8°F11.6°C 94% 9.7 mph NW15.6 kmh NW 9.7 mph15.6 kmh 29.39 in995.3 mb 0.00 in0.0 mm 0.00 in0.0 mm 0.34 in8.6 mm
04:43 AM 48.7°F9.3°C 53.0°F11.7°C 94% 15.8 mph NW25.4 kmh NW 15.9 mph25.6 kmh 29.39 in995.3 mb 0.00 in0.0 mm 0.00 in0.0 mm 0.34 in8.6 mm
04:46 AM 48.7°F9.3°C 53.1°F11.7°C 94% 6.0 mph NW9.7 kmh NW 6.0 mph9.7 kmh 29.38 in994.9 mb 0.00 in0.0 mm 0.00 in0.0 mm 0.34 in8.6 mm
04:49 AM 48.8°F9.3°C 52.9°F11.6°C 93% 4.7 mph W7.6 kmh W 4.7 mph7.6 kmh 29.38 in994.9 mb 0.00 in0.0 mm 0.00 in0.0 mm 0.34 in8.6 mm
04:52 AM 48.8°F9.3°C 53.0°F11.7°C 93% 8.1 mph WNW13.0 kmh WNW 8.1 mph13.0 kmh 29.38 in994.9 mb 0.00 in0.0 mm 0.00 in0.0 mm 0.34 in8.6 mm
04:55 AM 48.9°F9.4°C 53.1°F11.7°C 94% 8.3 mph NW13.4 kmh NW 8.4 mph13.5 kmh 29.38 in994.9 mb 0.00 in0.0 mm 0.00 in0.0 mm 0.34 in8.6 mm
04:58 AM 48.9°F9.4°C 53.1°F11.7°C 94% 9.3 mph WNW15.0 kmh WNW 9.3 mph15.0 kmh 29.38 in994.9 mb 0.00 in0.0 mm 0.00 in0.0 mm 0.34 in8.6 mm
05:01 AM 48.9°F9.4°C 53.1°F11.7°C 94% 5.2 mph W8.4 kmh W 5.2 mph8.4 kmh 29.38 in994.9 mb 0.00 in0.0 mm 0.00 in0.0 mm 0.34 in8.6 mm
05:04 AM 48.9°F9.4°C 53.0°F11.7°C 94% 4.0 mph SW6.4 kmh SW 4.1 mph6.6 kmh 29.36 in994.2 mb 0.00 in0.0 mm 0.00 in0.0 mm 0.36 in9.1 mm
05:07 AM 48.9°F9.4°C 53.3°F11.8°C 94% 16.6 mph NNW26.7 kmh NNW 16.7 mph26.9 kmh 29.36 in994.2 mb 0.00 in0.0 mm 0.00 in0.0 mm 0.36 in9.1 mm
05:10 AM 49.0°F9.4°C 53.0°F11.7°C 94% 4.8 mph WNW7.7 kmh WNW 4.9 mph7.9 kmh 29.36 in994.2 mb 0.00 in0.0 mm 0.00 in0.0 mm 0.36 in9.1 mm
05:13 AM 49.0°F9.4°C 53.2°F11.8°C 94% 7.7 mph NW12.4 kmh NW 7.7 mph12.4 kmh 29.36 in994.2 mb 0.00 in0.0 mm 0.00 in0.0 mm 0.36 in9.1 mm
05:16 AM 49.1°F9.5°C 53.2°F11.8°C 94% 11.3 mph NW18.2 kmh NW 11.3 mph18.2 kmh 29.36 in994.2 mb 0.00 in0.0 mm 0.00 in0.0 mm 0.36 in9.1 mm
05:19 AM 49.0°F9.4°C 53.2°F11.8°C 94% 11.7 mph WNW18.8 kmh WNW 11.8 mph19.0 kmh 29.37 in994.6 mb 0.00 in0.0 mm 0.00 in0.0 mm 0.36 in9.1 mm
05:22 AM 49.0°F9.4°C 53.3°F11.8°C 94% 18.1 mph NW29.1 kmh NW 18.1 mph29.1 kmh 29.35 in993.9 mb 0.00 in0.0 mm 0.00 in0.0 mm 0.36 in9.1 mm
05:25 AM 49.1°F9.5°C 53.3°F11.8°C 94% 6.2 mph NNW10.0 kmh NNW 6.3 mph10.1 kmh 29.35 in993.9 mb 0.00 in0.0 mm 0.00 in0.0 mm 0.36 in9.1 mm
05:28 AM 49.1°F9.5°C 53.5°F11.9°C 94% 9.3 mph WNW15.0 kmh WNW 9.3 mph15.0 kmh 29.36 in994.2 mb 0.00 in0.0 mm 0.00 in0.0 mm 0.38 in9.7 mm
05:31 AM 49.1°F9.5°C 53.3°F11.8°C 93% 4.9 mph NNW7.9 kmh NNW 4.9 mph7.9 kmh 29.35 in993.9 mb 0.00 in0.0 mm 0.00 in0.0 mm 0.38 in9.7 mm
05:34 AM 49.2°F9.6°C 53.3°F11.8°C 94% 5.8 mph NNW9.3 kmh NNW 5.9 mph9.5 kmh 29.35 in993.9 mb 0.00 in0.0 mm 0.00 in0.0 mm 0.38 in9.7 mm
05:37 AM 49.1°F9.5°C 53.4°F11.9°C 93% 12.0 mph NW19.3 kmh NW 12.0 mph19.3 kmh 29.35 in993.9 mb 0.00 in0.0 mm 0.00 in0.0 mm 0.40 in10.2 mm
05:40 AM 49.2°F9.6°C 53.3°F11.8°C 94% 9.5 mph WNW15.3 kmh WNW 9.6 mph15.4 kmh 29.35 in993.9 mb 0.00 in0.0 mm 0.00 in0.0 mm 0.40 in10.2 mm
05:43 AM 49.2°F9.6°C 53.7°F12.1°C 94% 17.5 mph NNW28.2 kmh NNW 17.5 mph28.2 kmh 29.35 in993.9 mb 0.00 in0.0 mm 0.00 in0.0 mm 0.42 in10.7 mm
05:46 AM 49.4°F9.7°C 53.6°F12.0°C 94% 5.3 mph NW8.5 kmh NW 5.3 mph8.5 kmh 29.35 in993.9 mb 0.00 in0.0 mm 0.00 in0.0 mm 0.42 in10.7 mm
05:49 AM 49.4°F9.7°C 53.6°F12.0°C 94% 4.8 mph W7.7 kmh W 4.9 mph7.9 kmh 29.35 in993.9 mb 0.00 in0.0 mm 0.00 in0.0 mm 0.44 in11.2 mm
05:52 AM 49.7°F9.8°C 53.6°F12.0°C 94% 2.4 mph ENE3.9 kmh ENE 2.4 mph3.9 kmh 29.35 in993.9 mb 0.00 in0.0 mm 0.00 in0.0 mm 0.44 in11.2 mm
05:55 AM 49.7°F9.8°C 53.5°F11.9°C 94% 7.7 mph W12.4 kmh W 7.8 mph12.6 kmh 29.35 in993.9 mb 0.00 in0.0 mm 0.00 in0.0 mm 0.44 in11.2 mm
05:58 AM 49.8°F9.9°C 53.7°F12.1°C 94% 14.7 mph NW23.7 kmh NW 14.8 mph23.8 kmh 29.35 in993.9 mb 0.00 in0.0 mm 0.00 in0.0 mm 0.46 in11.7 mm
06:01 AM 49.8°F9.9°C 53.8°F12.1°C 94% 10.1 mph NNW16.3 kmh NNW 10.2 mph16.4 kmh 29.34 in993.6 mb 0.00 in0.0 mm 0.00 in0.0 mm 0.46 in11.7 mm
06:04 AM 49.8°F9.9°C 53.8°F12.1°C 94% 13.7 mph WNW22.0 kmh WNW 13.9 mph22.4 kmh 29.33 in993.2 mb 0.00 in0.0 mm 0.00 in0.0 mm 0.46 in11.7 mm
06:07 AM 49.8°F9.9°C 53.9°F12.2°C 93% 14.6 mph W23.5 kmh W 14.6 mph23.5 kmh 29.35 in993.9 mb 0.00 in0.0 mm 0.00 in0.0 mm 0.48 in12.2 mm
06:10 AM 49.9°F9.9°C 53.8°F12.1°C 94% 16.2 mph NW26.1 kmh NW 16.2 mph26.1 kmh 29.35 in993.9 mb 0.00 in0.0 mm 0.00 in0.0 mm 0.48 in12.2 mm
06:13 AM 50.0°F10.0°C 54.1°F12.3°C 94% 13.3 mph NW21.4 kmh NW 13.4 mph21.6 kmh 29.35 in993.9 mb 0.00 in0.0 mm 0.00 in0.0 mm 0.48 in12.2 mm
06:16 AM 50.0°F10.0°C 54.0°F12.2°C 94% 17.5 mph NW28.2 kmh NW 17.6 mph28.3 kmh 29.35 in993.9 mb 0.00 in0.0 mm 0.00 in0.0 mm 0.48 in12.2 mm
06:19 AM 50.3°F10.2°C 53.8°F12.1°C 94% 11.5 mph NW18.5 kmh NW 11.6 mph18.7 kmh 29.35 in993.9 mb 0.00 in0.0 mm 0.00 in0.0 mm 0.48 in12.2 mm
06:22 AM 50.3°F10.2°C 53.7°F12.1°C 93% 10.9 mph NW17.5 kmh NW 10.9 mph17.5 kmh 29.34 in993.6 mb 0.00 in0.0 mm 0.00 in0.0 mm 0.48 in12.2 mm
06:25 AM 50.2°F10.1°C 53.9°F12.2°C 93% 14.7 mph NW23.7 kmh NW 14.8 mph23.8 kmh 29.35 in993.9 mb 0.00 in0.0 mm 0.00 in0.0 mm 0.48 in12.2 mm
06:28 AM 50.6°F10.3°C 53.9°F12.2°C 92% 7.3 mph WNW11.7 kmh WNW 7.3 mph11.7 kmh 29.35 in993.9 mb 0.00 in0.0 mm 0.00 in0.0 mm 0.48 in12.2 mm
06:31 AM 50.5°F10.3°C 54.2°F12.3°C 92% 8.9 mph NNW14.3 kmh NNW 8.9 mph14.3 kmh 29.35 in993.9 mb 0.00 in0.0 mm 0.00 in0.0 mm 0.48 in12.2 mm
06:34 AM 50.6°F10.3°C 54.0°F12.2°C 92% 13.4 mph NNW21.6 kmh NNW 13.5 mph21.7 kmh 29.34 in993.6 mb 0.00 in0.0 mm 0.00 in0.0 mm 0.48 in12.2 mm
06:37 AM 51.0°F10.6°C 53.5°F11.9°C 91% 14.2 mph NW22.9 kmh NW 14.3 mph23.0 kmh 29.35 in993.9 mb 0.00 in0.0 mm 0.00 in0.0 mm 0.48 in12.2 mm
06:40 AM 50.8°F10.4°C 53.8°F12.1°C 91% 11.5 mph NW18.5 kmh NW 11.6 mph18.7 kmh 29.35 in993.9 mb 0.00 in0.0 mm 0.00 in0.0 mm 0.48 in12.2 mm
06:43 AM 50.7°F10.4°C 53.9°F12.2°C 91% 6.3 mph NNW10.1 kmh NNW 6.3 mph10.1 kmh 29.35 in993.9 mb 0.00 in0.0 mm 0.00 in0.0 mm 0.48 in12.2 mm
06:46 AM 50.6°F10.3°C 53.9°F12.2°C 91% 7.6 mph NNW12.2 kmh NNW 7.6 mph12.2 kmh 29.36 in994.2 mb 0.00 in0.0 mm 0.00 in0.0 mm 0.48 in12.2 mm
06:49 AM 50.3°F10.2°C 53.1°F11.7°C 90% 10.1 mph NNW16.3 kmh NNW 10.1 mph16.3 kmh 29.37 in994.6 mb 0.00 in0.0 mm 0.00 in0.0 mm 0.50 in12.7 mm
06:52 AM 49.6°F9.8°C 52.8°F11.6°C 89% 10.8 mph NW17.4 kmh NW 11.1 mph17.9 kmh 29.37 in994.6 mb 0.00 in0.0 mm 0.00 in0.0 mm 0.50 in12.7 mm
06:55 AM 49.3°F9.6°C 53.0°F11.7°C 89% 8.9 mph 14.3 kmh 9.0 mph14.5 kmh 29.36 in994.2 mb 0.00 in0.0 mm 0.00 in0.0 mm 0.50 in12.7 mm
06:58 AM 49.2°F9.6°C 52.9°F11.6°C 89% 10.1 mph WNW16.3 kmh WNW 10.2 mph16.4 kmh 29.37 in994.6 mb 0.00 in0.0 mm 0.00 in0.0 mm 0.50 in12.7 mm
07:01 AM 49.2°F9.6°C 52.4°F11.3°C 88% 11.2 mph NNW18.0 kmh NNW 11.3 mph18.2 kmh 29.37 in994.6 mb 0.00 in0.0 mm 0.00 in0.0 mm 0.50 in12.7 mm
07:04 AM 49.0°F9.4°C 52.0°F11.1°C 87% 14.7 mph 23.7 kmh 14.7 mph23.7 kmh 29.37 in994.6 mb 0.00 in0.0 mm 0.00 in0.0 mm 0.52 in13.2 mm
07:07 AM 48.9°F9.4°C 52.0°F11.1°C 86% 15.0 mph 24.1 kmh 15.1 mph24.3 kmh 29.38 in994.9 mb 0.00 in0.0 mm 0.00 in0.0 mm 0.52 in13.2 mm
07:10 AM 49.3°F9.6°C 52.0°F11.1°C 86% 8.9 mph 14.3 kmh 9.0 mph14.5 kmh 29.38 in994.9 mb 0.00 in0.0 mm 0.00 in0.0 mm 0.52 in13.2 mm
07:13 AM 49.3°F9.6°C 52.1°F11.2°C 87% 7.9 mph NNW12.7 kmh NNW 8.0 mph12.9 kmh 29.39 in995.3 mb 0.00 in0.0 mm 0.00 in0.0 mm 0.52 in13.2 mm
07:19 AM 48.2°F9.0°C 51.3°F10.7°C 86% 8.1 mph NNW13.0 kmh NNW 8.1 mph13.0 kmh 29.39 in995.3 mb 0.00 in0.0 mm 0.00 in0.0 mm 0.52 in13.2 mm
07:22 AM 47.8°F8.8°C 51.4°F10.8°C 86% 7.0 mph NNW11.3 kmh NNW 7.1 mph11.4 kmh 29.40 in995.6 mb 0.00 in0.0 mm 0.00 in0.0 mm 0.52 in13.2 mm
07:25 AM 47.2°F8.4°C 50.1°F10.1°C 84% 22.2 mph 35.7 kmh 22.4 mph36.0 kmh 29.40 in995.6 mb 0.00 in0.0 mm 0.00 in0.0 mm 0.54 in13.7 mm
07:28 AM 47.0°F8.3°C 50.4°F10.2°C 84% 13.3 mph 21.4 kmh 13.3 mph21.4 kmh 29.41 in995.9 mb 0.00 in0.0 mm 0.00 in0.0 mm 0.54 in13.7 mm
07:31 AM 47.0°F8.3°C 49.6°F9.8°C 82% 7.3 mph NNW11.7 kmh NNW 7.3 mph11.7 kmh 29.40 in995.6 mb 0.00 in0.0 mm 0.00 in0.0 mm 0.54 in13.7 mm
07:34 AM 47.0°F8.3°C 50.1°F10.1°C 83% 13.4 mph 21.6 kmh 13.4 mph21.6 kmh 29.42 in996.3 mb 0.00 in0.0 mm 0.00 in0.0 mm 0.54 in13.7 mm
07:37 AM 46.7°F8.2°C 49.6°F9.8°C 82% 15.5 mph NW24.9 kmh NW 15.6 mph25.1 kmh 29.42 in996.3 mb 0.00 in0.0 mm 0.00 in0.0 mm 0.54 in13.7 mm
07:40 AM 46.5°F8.1°C 48.8°F9.3°C 81% 12.1 mph W19.5 kmh W 12.2 mph19.6 kmh 29.42 in996.3 mb 0.00 in0.0 mm 0.00 in0.0 mm 0.54 in13.7 mm
07:43 AM 46.9°F8.3°C 47.7°F8.7°C 79% 15.5 mph NNE24.9 kmh NNE 15.6 mph25.1 kmh 29.42 in996.3 mb 0.00 in0.0 mm 0.00 in0.0 mm 0.54 in13.7 mm
07:46 AM 46.7°F8.2°C 47.5°F8.6°C 78% 14.5 mph 23.3 kmh 14.6 mph23.5 kmh 29.43 in996.6 mb 0.00 in0.0 mm 0.00 in0.0 mm 0.54 in13.7 mm
07:49 AM 46.7°F8.2°C 47.9°F8.8°C 78% 10.9 mph 17.5 kmh 11.0 mph17.7 kmh 29.43 in996.6 mb 0.00 in0.0 mm 0.00 in0.0 mm 0.54 in13.7 mm
07:52 AM 47.0°F8.3°C 48.0°F8.9°C 79% 12.1 mph NNW19.5 kmh NNW 12.1 mph19.5 kmh 29.43 in996.6 mb 0.00 in0.0 mm 0.00 in0.0 mm 0.54 in13.7 mm
07:55 AM 47.0°F8.3°C 48.0°F8.9°C 78% 14.5 mph NW23.3 kmh NW 14.5 mph23.3 kmh 29.43 in996.6 mb 0.00 in0.0 mm 0.00 in0.0 mm 0.54 in13.7 mm
07:58 AM 47.0°F8.3°C 48.7°F9.3°C 79% 6.0 mph 9.7 kmh 6.0 mph9.7 kmh 29.43 in996.6 mb 0.00 in0.0 mm 0.00 in0.0 mm 0.54 in13.7 mm
08:01 AM 46.9°F8.3°C 47.7°F8.7°C 78% 13.9 mph NW22.4 kmh NW 14.0 mph22.5 kmh 29.43 in996.6 mb 0.00 in0.0 mm 0.00 in0.0 mm 0.54 in13.7 mm
08:04 AM 47.1°F8.4°C 48.1°F8.9°C 78% 8.3 mph NNW13.4 kmh NNW 8.4 mph13.5 kmh 29.44 in997.0 mb 0.00 in0.0 mm 0.00 in0.0 mm 0.54 in13.7 mm
08:07 AM 48.4°F9.1°C 47.8°F8.8°C 78% 10.5 mph NNW16.9 kmh NNW 10.6 mph17.1 kmh 29.45 in997.3 mb 0.00 in0.0 mm 0.00 in0.0 mm 0.54 in13.7 mm
08:10 AM 48.0°F8.9°C 48.3°F9.1°C 79% 9.6 mph NNW15.4 kmh NNW 9.7 mph15.6 kmh 29.45 in997.3 mb 0.00 in0.0 mm 0.00 in0.0 mm 0.54 in13.7 mm
08:13 AM 45.6°F7.6°C 48.1°F8.9°C 80% 12.5 mph 20.1 kmh 12.6 mph20.3 kmh 29.46 in997.6 mb 0.00 in0.0 mm 0.00 in0.0 mm 0.54 in13.7 mm
08:16 AM 45.3°F7.4°C 48.3°F9.1°C 80% 13.7 mph NNW22.0 kmh NNW 13.7 mph22.0 kmh 29.47 in998.0 mb 0.00 in0.0 mm 0.00 in0.0 mm 0.54 in13.7 mm
08:19 AM 45.2°F7.3°C 48.8°F9.3°C 82% 10.0 mph 16.1 kmh 10.2 mph16.4 kmh 29.47 in998.0 mb 0.00 in0.0 mm 0.00 in0.0 mm 0.54 in13.7 mm
08:22 AM 45.2°F7.3°C 48.8°F9.3°C 82% 8.9 mph 14.3 kmh 9.0 mph14.5 kmh 29.48 in998.3 mb 0.00 in0.0 mm 0.00 in0.0 mm 0.54 in13.7 mm
08:25 AM 44.8°F7.1°C 48.7°F9.3°C 83% 8.9 mph NNW14.3 kmh NNW 9.0 mph14.5 kmh 29.47 in998.0 mb 0.00 in0.0 mm 0.00 in0.0 mm 0.56 in14.2 mm
08:28 AM 44.4°F6.9°C 48.4°F9.1°C 82% 6.6 mph NNW10.6 kmh NNW 6.6 mph10.6 kmh 29.48 in998.3 mb 0.00 in0.0 mm 0.00 in0.0 mm 0.56 in14.2 mm
08:31 AM 44.5°F6.9°C 48.1°F8.9°C 82% 6.5 mph NW10.5 kmh NW 6.5 mph10.5 kmh 29.48 in998.3 mb 0.00 in0.0 mm 0.00 in0.0 mm 0.56 in14.2 mm
08:34 AM 44.0°F6.7°C 46.6°F8.1°C 79% 11.7 mph NNE18.8 kmh NNE 11.7 mph18.8 kmh 29.49 in998.6 mb 0.00 in0.0 mm 0.00 in0.0 mm 0.56 in14.2 mm
08:37 AM 45.2°F7.3°C 47.0°F8.3°C 80% 6.9 mph 11.1 kmh 7.0 mph11.3 kmh 29.49 in998.6 mb 0.00 in0.0 mm 0.00 in0.0 mm 0.56 in14.2 mm
08:40 AM 45.1°F7.3°C 47.3°F8.5°C 79% 8.9 mph NNW14.3 kmh NNW 9.0 mph14.5 kmh 29.50 in999.0 mb 0.00 in0.0 mm 0.00 in0.0 mm 0.56 in14.2 mm
08:46 AM 45.8°F7.7°C 45.5°F7.5°C 76% 7.3 mph NNW11.7 kmh NNW 7.3 mph11.7 kmh 29.50 in999.0 mb 0.00 in0.0 mm 0.00 in0.0 mm 0.56 in14.2 mm
08:49 AM 45.6°F7.6°C 45.5°F7.5°C 76% 9.5 mph 15.3 kmh 9.5 mph15.3 kmh 29.51 in999.3 mb 0.00 in0.0 mm 0.00 in0.0 mm 0.56 in14.2 mm
08:52 AM 46.0°F7.8°C 43.9°F6.6°C 73% 12.1 mph 19.5 kmh 12.2 mph19.6 kmh 29.50 in999.0 mb 0.00 in0.0 mm 0.00 in0.0 mm 0.56 in14.2 mm
08:55 AM 46.0°F7.8°C 43.1°F6.2°C 71% 13.3 mph 21.4 kmh 13.5 mph21.7 kmh 29.52 in999.7 mb 0.00 in0.0 mm 0.00 in0.0 mm 0.56 in14.2 mm
08:58 AM 45.8°F7.7°C 43.7°F6.5°C 72% 7.1 mph NNW11.4 kmh NNW 7.2 mph11.6 kmh 29.52 in999.7 mb 0.00 in0.0 mm 0.00 in0.0 mm 0.56 in14.2 mm
09:01 AM 46.0°F7.8°C 42.9°F6.1°C 71% 19.1 mph NE30.7 kmh NE 19.2 mph30.9 kmh 29.52 in999.7 mb 0.00 in0.0 mm 0.00 in0.0 mm 0.56 in14.2 mm
09:04 AM 45.7°F7.6°C 44.2°F6.8°C 72% 13.5 mph NNW21.7 kmh NNW 13.6 mph21.9 kmh 29.52 in999.7 mb 0.00 in0.0 mm 0.00 in0.0 mm 0.56 in14.2 mm
09:07 AM 46.2°F7.9°C 44.2°F6.8°C 73% 9.7 mph NE15.6 kmh NE 9.8 mph15.8 kmh 29.52 in999.7 mb 0.00 in0.0 mm 0.00 in0.0 mm 0.56 in14.2 mm
09:13 AM 46.2°F7.9°C 43.8°F6.6°C 72% 10.5 mph NNW16.9 kmh NNW 10.6 mph17.1 kmh 29.52 in999.7 mb 0.00 in0.0 mm 0.00 in0.0 mm 0.56 in14.2 mm
09:16 AM 46.1°F7.8°C 44.0°F6.7°C 72% 13.3 mph NNW21.4 kmh NNW 13.4 mph21.6 kmh 29.52 in999.7 mb 0.00 in0.0 mm 0.00 in0.0 mm 0.56 in14.2 mm
09:22 AM 46.3°F7.9°C 44.9°F7.2°C 73% 4.3 mph NNW6.9 kmh NNW 4.4 mph7.1 kmh 29.53 in1000.0 mb 0.00 in0.0 mm 0.00 in0.0 mm 0.56 in14.2 mm
09:25 AM 46.1°F7.8°C 44.8°F7.1°C 74% 6.0 mph 9.7 kmh 6.0 mph9.7 kmh 29.53 in1000.0 mb 0.00 in0.0 mm 0.00 in0.0 mm 0.56 in14.2 mm
09:28 AM 46.0°F7.8°C 44.4°F6.9°C 73% 17.0 mph 27.4 kmh 17.1 mph27.5 kmh 29.53 in1000.0 mb 0.00 in0.0 mm 0.00 in0.0 mm 0.56 in14.2 mm
09:31 AM 45.7°F7.6°C 44.1°F6.7°C 72% 9.9 mph WNW15.9 kmh WNW 9.9 mph15.9 kmh 29.52 in999.7 mb 0.00 in0.0 mm 0.00 in0.0 mm 0.56 in14.2 mm
09:34 AM 45.7°F7.6°C 44.3°F6.8°C 73% 9.5 mph WNW15.3 kmh WNW 9.6 mph15.4 kmh 29.52 in999.7 mb 0.00 in0.0 mm 0.00 in0.0 mm 0.56 in14.2 mm
09:37 AM 45.8°F7.7°C 43.9°F6.6°C 72% 14.5 mph NW23.3 kmh NW 14.5 mph23.3 kmh 29.53 in1000.0 mb 0.00 in0.0 mm 0.00 in0.0 mm 0.56 in14.2 mm
09:40 AM 46.0°F7.8°C 44.2°F6.8°C 73% 16.2 mph 26.1 kmh 16.3 mph26.2 kmh 29.53 in1000.0 mb 0.00 in0.0 mm 0.00 in0.0 mm 0.56 in14.2 mm
09:43 AM 45.8°F7.7°C 44.3°F6.8°C 73% 9.9 mph NW15.9 kmh NW 10.0 mph16.1 kmh 29.54 in1000.3 mb 0.00 in0.0 mm 0.00 in0.0 mm 0.56 in14.2 mm
09:46 AM 46.1°F7.8°C 43.4°F6.3°C 72% 15.9 mph NNW25.6 kmh NNW 16.0 mph25.7 kmh 29.53 in1000.0 mb 0.00 in0.0 mm 0.00 in0.0 mm 0.56 in14.2 mm
09:49 AM 46.1°F7.8°C 44.1°F6.7°C 73% 10.4 mph NNE16.7 kmh NNE 10.6 mph17.1 kmh 29.54 in1000.3 mb 0.00 in0.0 mm 0.00 in0.0 mm 0.56 in14.2 mm
09:52 AM 46.2°F7.9°C 43.6°F6.4°C 72% 7.7 mph NNW12.4 kmh NNW 7.8 mph12.6 kmh 29.55 in1000.7 mb 0.00 in0.0 mm 0.00 in0.0 mm 0.56 in14.2 mm
09:55 AM 46.3°F7.9°C 43.5°F6.4°C 72% 9.3 mph NW15.0 kmh NW 9.4 mph15.1 kmh 29.55 in1000.7 mb 0.00 in0.0 mm 0.00 in0.0 mm 0.56 in14.2 mm
09:58 AM 46.6°F8.1°C 43.7°F6.5°C 72% 9.7 mph NW15.6 kmh NW 9.8 mph15.8 kmh 29.55 in1000.7 mb 0.00 in0.0 mm 0.00 in0.0 mm 0.56 in14.2 mm
10:01 AM 46.6°F8.1°C 43.3°F6.3°C 71% 9.7 mph NNW15.6 kmh NNW 9.7 mph15.6 kmh 29.55 in1000.7 mb 0.00 in0.0 mm 0.00 in0.0 mm 0.56 in14.2 mm
10:04 AM 46.6°F8.1°C 43.1°F6.2°C 72% 11.5 mph NNW18.5 kmh NNW 11.6 mph18.7 kmh 29.56 in1001.0 mb 0.00 in0.0 mm 0.00 in0.0 mm 0.56 in14.2 mm
10:07 AM 46.5°F8.1°C 43.3°F6.3°C 72% 7.0 mph 11.3 kmh 7.1 mph11.4 kmh 29.56 in1001.0 mb 0.00 in0.0 mm 0.00 in0.0 mm 0.56 in14.2 mm
10:10 AM 46.5°F8.1°C 44.0°F6.7°C 73% 7.9 mph NNW12.7 kmh NNW 8.0 mph12.9 kmh 29.56 in1001.0 mb 0.00 in0.0 mm 0.00 in0.0 mm 0.56 in14.2 mm
10:13 AM 46.6°F8.1°C 43.9°F6.6°C 72% 10.9 mph 17.5 kmh 11.0 mph17.7 kmh 29.56 in1001.0 mb 0.00 in0.0 mm 0.00 in0.0 mm 0.56 in14.2 mm
10:16 AM 46.7°F8.2°C 43.2°F6.2°C 70% 6.2 mph NW10.0 kmh NW 6.3 mph10.1 kmh 29.56 in1001.0 mb 0.00 in0.0 mm 0.00 in0.0 mm 0.56 in14.2 mm
10:19 AM 46.7°F8.2°C 43.4°F6.3°C 71% 11.8 mph NNW19.0 kmh NNW 11.9 mph19.2 kmh 29.56 in1001.0 mb 0.00 in0.0 mm 0.00 in0.0 mm 0.56 in14.2 mm
10:22 AM 46.5°F8.1°C 43.9°F6.6°C 72% 9.7 mph WNW15.6 kmh WNW 9.8 mph15.8 kmh 29.56 in1001.0 mb 0.00 in0.0 mm 0.00 in0.0 mm 0.56 in14.2 mm
10:25 AM 46.9°F8.3°C 43.2°F6.2°C 71% 6.1 mph WNW9.8 kmh WNW 6.2 mph10.0 kmh 29.56 in1001.0 mb 0.00 in0.0 mm 0.00 in0.0 mm 0.56 in14.2 mm
10:28 AM 47.0°F8.3°C 43.4°F6.3°C 70% 8.9 mph NNW14.3 kmh NNW 9.0 mph14.5 kmh 29.56 in1001.0 mb 0.00 in0.0 mm 0.00 in0.0 mm 0.56 in14.2 mm
10:31 AM 47.1°F8.4°C 43.5°F6.4°C 70% 8.9 mph NW14.3 kmh NW 9.0 mph14.5 kmh 29.56 in1001.0 mb 0.00 in0.0 mm 0.00 in0.0 mm 0.56 in14.2 mm
10:34 AM 47.0°F8.3°C 43.1°F6.2°C 69% 12.2 mph NNW19.6 kmh NNW 12.3 mph19.8 kmh 29.57 in1001.4 mb 0.00 in0.0 mm 0.00 in0.0 mm 0.56 in14.2 mm
10:40 AM 47.2°F8.4°C 43.8°F6.6°C 71% 9.7 mph 15.6 kmh 9.7 mph15.6 kmh 29.57 in1001.4 mb 0.00 in0.0 mm 0.00 in0.0 mm 0.56 in14.2 mm
10:43 AM 47.3°F8.5°C 42.6°F5.9°C 69% 15.6 mph NNW25.1 kmh NNW 15.6 mph25.1 kmh 29.57 in1001.4 mb 0.00 in0.0 mm 0.00 in0.0 mm 0.56 in14.2 mm
10:46 AM 47.6°F8.7°C 43.4°F6.3°C 70% 10.9 mph 17.5 kmh 10.9 mph17.5 kmh 29.57 in1001.4 mb 0.00 in0.0 mm 0.00 in0.0 mm 0.56 in14.2 mm
10:49 AM 47.6°F8.7°C 42.6°F5.9°C 68% 15.5 mph WNW24.9 kmh WNW 15.5 mph24.9 kmh 29.58 in1001.7 mb 0.00 in0.0 mm 0.00 in0.0 mm 0.56 in14.2 mm
10:52 AM 48.1°F8.9°C 43.3°F6.3°C 69% 8.1 mph NNW13.0 kmh NNW 8.1 mph13.0 kmh 29.58 in1001.7 mb 0.00 in0.0 mm 0.00 in0.0 mm 0.56 in14.2 mm
10:55 AM 48.3°F9.1°C 43.4°F6.3°C 69% 8.3 mph 13.4 kmh 8.4 mph13.5 kmh 29.59 in1002.0 mb 0.00 in0.0 mm 0.00 in0.0 mm 0.56 in14.2 mm
10:58 AM 47.9°F8.8°C 42.6°F5.9°C 67% 17.9 mph 28.8 kmh 18.0 mph29.0 kmh 29.60 in1002.4 mb 0.00 in0.0 mm 0.00 in0.0 mm 0.56 in14.2 mm
11:01 AM 48.4°F9.1°C 43.2°F6.2°C 68% 6.0 mph NNW9.7 kmh NNW 6.0 mph9.7 kmh 29.59 in1002.0 mb 0.00 in0.0 mm 0.00 in0.0 mm 0.56 in14.2 mm
11:04 AM 48.2°F9.0°C 43.3°F6.3°C 68% 8.7 mph NNW14.0 kmh NNW 8.7 mph14.0 kmh 29.59 in1002.0 mb 0.00 in0.0 mm 0.00 in0.0 mm 0.56 in14.2 mm
11:07 AM 48.9°F9.4°C 43.7°F6.5°C 69% 8.5 mph 13.7 kmh 8.6 mph13.8 kmh 29.59 in1002.0 mb 0.00 in0.0 mm 0.00 in0.0 mm 0.56 in14.2 mm
11:10 AM 49.2°F9.6°C 44.0°F6.7°C 69% 7.5 mph NNW12.1 kmh NNW 7.6 mph12.2 kmh 29.60 in1002.4 mb 0.00 in0.0 mm 0.00 in0.0 mm 0.56 in14.2 mm
11:13 AM 48.4°F9.1°C 43.3°F6.3°C 67% 9.3 mph NNW15.0 kmh NNW 9.4 mph15.1 kmh 29.60 in1002.4 mb 0.00 in0.0 mm 0.00 in0.0 mm 0.56 in14.2 mm
11:16 AM 46.9°F8.3°C 43.8°F6.6°C 69% 11.3 mph 18.2 kmh 11.4 mph18.3 kmh 29.60 in1002.4 mb 0.00 in0.0 mm 0.00 in0.0 mm 0.56 in14.2 mm
11:19 AM 45.7°F7.6°C 43.7°F6.5°C 71% 8.9 mph NNW14.3 kmh NNW 8.9 mph14.3 kmh 29.60 in1002.4 mb 0.00 in0.0 mm 0.00 in0.0 mm 0.56 in14.2 mm
11:22 AM 45.7°F7.6°C 44.0°F6.7°C 72% 8.9 mph NNW14.3 kmh NNW 8.9 mph14.3 kmh 29.62 in1003.0 mb 0.00 in0.0 mm 0.00 in0.0 mm 0.56 in14.2 mm
11:25 AM 46.1°F7.8°C 44.6°F7.0°C 73% 9.7 mph 15.6 kmh 9.8 mph15.8 kmh 29.61 in1002.7 mb 0.00 in0.0 mm 0.00 in0.0 mm 0.56 in14.2 mm
11:28 AM 46.6°F8.1°C 44.2°F6.8°C 72% 8.5 mph 13.7 kmh 8.6 mph13.8 kmh 29.62 in1003.0 mb 0.00 in0.0 mm 0.00 in0.0 mm 0.56 in14.2 mm
11:31 AM 47.4°F8.6°C 44.0°F6.7°C 71% 9.9 mph 15.9 kmh 10.0 mph16.1 kmh 29.62 in1003.0 mb 0.00 in0.0 mm 0.00 in0.0 mm 0.56 in14.2 mm
11:34 AM 47.9°F8.8°C 44.7°F7.1°C 72% 17.5 mph NNW28.2 kmh NNW 17.6 mph28.3 kmh 29.62 in1003.0 mb 0.00 in0.0 mm 0.00 in0.0 mm 0.56 in14.2 mm
11:37 AM 47.4°F8.6°C 44.6°F7.0°C 72% 15.1 mph NW24.3 kmh NW 15.2 mph24.5 kmh 29.62 in1003.0 mb 0.00 in0.0 mm 0.00 in0.0 mm 0.56 in14.2 mm
11:40 AM 47.2°F8.4°C 44.9°F7.2°C 73% 17.9 mph NNW28.8 kmh NNW 18.0 mph29.0 kmh 29.62 in1003.0 mb 0.00 in0.0 mm 0.00 in0.0 mm 0.56 in14.2 mm
11:43 AM 47.1°F8.4°C 45.1°F7.3°C 73% 14.6 mph 23.5 kmh 14.7 mph23.7 kmh 29.62 in1003.0 mb 0.00 in0.0 mm 0.00 in0.0 mm 0.56 in14.2 mm
11:46 AM 47.6°F8.7°C 44.8°F7.1°C 73% 6.5 mph 10.5 kmh 6.5 mph10.5 kmh 29.62 in1003.0 mb 0.00 in0.0 mm 0.00 in0.0 mm 0.56 in14.2 mm
11:49 AM 48.1°F8.9°C 45.4°F7.4°C 73% 12.7 mph NW20.4 kmh NW 12.7 mph20.4 kmh 29.62 in1003.0 mb 0.00 in0.0 mm 0.00 in0.0 mm 0.56 in14.2 mm
11:52 AM 48.1°F8.9°C 45.5°F7.5°C 72% 9.5 mph NW15.3 kmh NW 9.6 mph15.4 kmh 29.62 in1003.0 mb 0.00 in0.0 mm 0.00 in0.0 mm 0.56 in14.2 mm
11:55 AM 48.3°F9.1°C 44.7°F7.1°C 71% 10.7 mph NNW17.2 kmh NNW 10.8 mph17.4 kmh 29.63 in1003.4 mb 0.00 in0.0 mm 0.00 in0.0 mm 0.56 in14.2 mm
11:58 AM 48.9°F9.4°C 45.1°F7.3°C 72% 7.7 mph NNW12.4 kmh NNW 7.8 mph12.6 kmh 29.62 in1003.0 mb 0.00 in0.0 mm 0.00 in0.0 mm 0.56 in14.2 mm
12:01 PM 48.7°F9.3°C 44.8°F7.1°C 70% 17.7 mph NW28.5 kmh NW 17.9 mph28.8 kmh 29.63 in1003.4 mb 0.00 in0.0 mm 0.00 in0.0 mm 0.56 in14.2 mm
12:04 PM 48.7°F9.3°C 44.8°F7.1°C 70% 6.9 mph NW11.1 kmh NW 6.9 mph11.1 kmh 29.62 in1003.0 mb 0.00 in0.0 mm 0.00 in0.0 mm 0.56 in14.2 mm
12:07 PM 48.1°F8.9°C 44.9°F7.2°C 70% 8.5 mph NW13.7 kmh NW 8.5 mph13.7 kmh 29.63 in1003.4 mb 0.00 in0.0 mm 0.00 in0.0 mm 0.56 in14.2 mm
12:10 PM 48.0°F8.9°C 44.5°F6.9°C 70% 8.0 mph 12.9 kmh 8.0 mph12.9 kmh 29.63 in1003.4 mb 0.00 in0.0 mm 0.00 in0.0 mm 0.56 in14.2 mm
12:13 PM 48.7°F9.3°C 44.9°F7.2°C 71% 8.9 mph WNW14.3 kmh WNW 9.0 mph14.5 kmh 29.63 in1003.4 mb 0.00 in0.0 mm 0.00 in0.0 mm 0.56 in14.2 mm
12:16 PM 49.3°F9.6°C 45.2°F7.3°C 70% 6.4 mph NW10.3 kmh NW 6.5 mph10.5 kmh 29.63 in1003.4 mb 0.00 in0.0 mm 0.00 in0.0 mm 0.56 in14.2 mm
12:19 PM 48.8°F9.3°C 45.1°F7.3°C 69% 3.6 mph W5.8 kmh W 3.6 mph5.8 kmh 29.63 in1003.4 mb 0.00 in0.0 mm 0.00 in0.0 mm 0.56 in14.2 mm
12:22 PM 48.8°F9.3°C 45.1°F7.3°C 70% 7.5 mph NW12.1 kmh NW 7.6 mph12.2 kmh 29.64 in1003.7 mb 0.00 in0.0 mm 0.00 in0.0 mm 0.56 in14.2 mm
12:25 PM 49.4°F9.7°C 44.9°F7.2°C 69% 17.3 mph 27.8 kmh 17.3 mph27.8 kmh 29.64 in1003.7 mb 0.00 in0.0 mm 0.00 in0.0 mm 0.56 in14.2 mm
12:28 PM 48.8°F9.3°C 44.3°F6.8°C 68% 10.8 mph 17.4 kmh 10.9 mph17.5 kmh 29.64 in1003.7 mb 0.00 in0.0 mm 0.00 in0.0 mm 0.56 in14.2 mm
12:31 PM 48.9°F9.4°C 44.2°F6.8°C 68% 8.5 mph NW13.7 kmh NW 8.6 mph13.8 kmh 29.64 in1003.7 mb 0.00 in0.0 mm 0.00 in0.0 mm 0.56 in14.2 mm
12:34 PM 49.1°F9.5°C 44.1°F6.7°C 67% 12.5 mph NW20.1 kmh NW 12.6 mph20.3 kmh 29.64 in1003.7 mb 0.00 in0.0 mm 0.00 in0.0 mm 0.56 in14.2 mm
12:37 PM 49.1°F9.5°C 44.4°F6.9°C 68% 9.9 mph NNW15.9 kmh NNW 9.9 mph15.9 kmh 29.64 in1003.7 mb 0.00 in0.0 mm 0.00 in0.0 mm 0.56 in14.2 mm
12:40 PM 49.6°F9.8°C 45.4°F7.4°C 69% 5.9 mph 9.5 kmh 6.0 mph9.7 kmh 29.64 in1003.7 mb 0.00 in0.0 mm 0.00 in0.0 mm 0.56 in14.2 mm
12:43 PM 49.9°F9.9°C 45.3°F7.4°C 69% 9.3 mph NW15.0 kmh NW 9.4 mph15.1 kmh 29.64 in1003.7 mb 0.00 in0.0 mm 0.00 in0.0 mm 0.56 in14.2 mm
12:46 PM 49.1°F9.5°C 44.7°F7.1°C 67% 5.7 mph NNW9.2 kmh NNW 5.7 mph9.2 kmh 29.64 in1003.7 mb 0.00 in0.0 mm 0.00 in0.0 mm 0.56 in14.2 mm
12:49 PM 48.8°F9.3°C 45.0°F7.2°C 68% 11.5 mph NNW18.5 kmh NNW 11.6 mph18.7 kmh 29.64 in1003.7 mb 0.00 in0.0 mm 0.00 in0.0 mm 0.56 in14.2 mm
12:52 PM 47.4°F8.6°C 45.0°F7.2°C 68% 8.1 mph NW13.0 kmh NW 8.1 mph13.0 kmh 29.64 in1003.7 mb 0.00 in0.0 mm 0.00 in0.0 mm 0.56 in14.2 mm
12:55 PM 47.1°F8.4°C 45.1°F7.3°C 70% 8.1 mph 13.0 kmh 8.1 mph13.0 kmh 29.65 in1004.1 mb 0.00 in0.0 mm 0.00 in0.0 mm 0.56 in14.2 mm
12:58 PM 47.1°F8.4°C 44.7°F7.1°C 70% 10.7 mph NW17.2 kmh NW 10.8 mph17.4 kmh 29.64 in1003.7 mb 0.00 in0.0 mm 0.00 in0.0 mm 0.56 in14.2 mm
01:01 PM 48.0°F8.9°C 45.1°F7.3°C 71% 9.0 mph NW14.5 kmh NW 9.1 mph14.6 kmh 29.64 in1003.7 mb 0.00 in0.0 mm 0.00 in0.0 mm 0.56 in14.2 mm
01:04 PM 48.8°F9.3°C 45.4°F7.4°C 71% 6.8 mph NW10.9 kmh NW 6.8 mph10.9 kmh 29.65 in1004.1 mb 0.00 in0.0 mm 0.00 in0.0 mm 0.56 in14.2 mm
01:07 PM 49.1°F9.5°C 45.9°F7.7°C 71% 9.1 mph NNW14.6 kmh NNW 9.2 mph14.8 kmh 29.65 in1004.1 mb 0.00 in0.0 mm 0.00 in0.0 mm 0.56 in14.2 mm
01:10 PM 48.4°F9.1°C 45.3°F7.4°C 70% 11.7 mph NNW18.8 kmh NNW 11.8 mph19.0 kmh 29.66 in1004.4 mb 0.00 in0.0 mm 0.00 in0.0 mm 0.56 in14.2 mm
01:13 PM 49.0°F9.4°C 45.6°F7.6°C 70% 15.1 mph W24.3 kmh W 15.3 mph24.6 kmh 29.66 in1004.4 mb 0.00 in0.0 mm 0.00 in0.0 mm 0.56 in14.2 mm
01:16 PM 49.6°F9.8°C 45.5°F7.5°C 69% 10.4 mph NW16.7 kmh NW 10.4 mph16.7 kmh 29.66 in1004.4 mb 0.00 in0.0 mm 0.00 in0.0 mm 0.56 in14.2 mm
01:19 PM 48.1°F8.9°C 45.0°F7.2°C 68% 10.1 mph NNW16.3 kmh NNW 10.2 mph16.4 kmh 29.66 in1004.4 mb 0.00 in0.0 mm 0.00 in0.0 mm 0.56 in14.2 mm
01:22 PM 47.9°F8.8°C 45.2°F7.3°C 69% 10.1 mph NW16.3 kmh NW 10.2 mph16.4 kmh 29.67 in1004.7 mb 0.00 in0.0 mm 0.00 in0.0 mm 0.56 in14.2 mm
01:25 PM 46.0°F7.8°C 44.9°F7.2°C 70% 8.1 mph 13.0 kmh 8.2 mph13.2 kmh 29.67 in1004.7 mb 0.00 in0.0 mm 0.00 in0.0 mm 0.56 in14.2 mm
01:28 PM 45.8°F7.7°C 45.7°F7.6°C 73% 5.2 mph NNW8.4 kmh NNW 5.3 mph8.5 kmh 29.67 in1004.7 mb 0.00 in0.0 mm 0.00 in0.0 mm 0.56 in14.2 mm
01:31 PM 45.8°F7.7°C 45.4°F7.4°C 73% 17.4 mph NNE28.0 kmh NNE 17.5 mph28.2 kmh 29.67 in1004.7 mb 0.00 in0.0 mm 0.00 in0.0 mm 0.56 in14.2 mm
01:34 PM 45.6°F7.6°C 45.1°F7.3°C 73% 7.4 mph NNW11.9 kmh NNW 7.4 mph11.9 kmh 29.67 in1004.7 mb 0.00 in0.0 mm 0.00 in0.0 mm 0.56 in14.2 mm
01:37 PM 45.4°F7.4°C 45.4°F7.4°C 75% 9.3 mph NNW15.0 kmh NNW 9.4 mph15.1 kmh 29.68 in1005.1 mb 0.00 in0.0 mm 0.00 in0.0 mm 0.56 in14.2 mm
01:40 PM 44.7°F7.1°C 44.7°F7.1°C 74% 9.7 mph 15.6 kmh 9.8 mph15.8 kmh 29.68 in1005.1 mb 0.00 in0.0 mm 0.00 in0.0 mm 0.56 in14.2 mm
01:43 PM 44.9°F7.2°C 44.8°F7.1°C 75% 5.6 mph NNW9.0 kmh NNW 5.7 mph9.2 kmh 29.68 in1005.1 mb 0.00 in0.0 mm 0.00 in0.0 mm 0.56 in14.2 mm
01:46 PM 45.6°F7.6°C 45.0°F7.2°C 75% 15.8 mph NW25.4 kmh NW 15.9 mph25.6 kmh 29.69 in1005.4 mb 0.00 in0.0 mm 0.00 in0.0 mm 0.56 in14.2 mm
01:49 PM 45.8°F7.7°C 45.4°F7.4°C 76% 8.7 mph 14.0 kmh 8.8 mph14.2 kmh 29.69 in1005.4 mb 0.00 in0.0 mm 0.00 in0.0 mm 0.56 in14.2 mm
01:52 PM 45.6°F7.6°C 45.5°F7.5°C 76% 11.3 mph 18.2 kmh 11.4 mph18.3 kmh 29.69 in1005.4 mb 0.00 in0.0 mm 0.00 in0.0 mm 0.56 in14.2 mm
01:55 PM 44.0°F6.7°C 45.7°F7.6°C 77% 7.9 mph NNW12.7 kmh NNW 8.0 mph12.9 kmh 29.69 in1005.4 mb 0.00 in0.0 mm 0.00 in0.0 mm 0.56 in14.2 mm
01:58 PM 43.0°F6.1°C 45.0°F7.2°C 75% 8.5 mph 13.7 kmh 8.6 mph13.8 kmh 29.69 in1005.4 mb 0.00 in0.0 mm 0.00 in0.0 mm 0.56 in14.2 mm
02:01 PM 42.0°F5.6°C 45.0°F7.2°C 77% 8.1 mph 13.0 kmh 8.1 mph13.0 kmh 29.70 in1005.8 mb 0.00 in0.0 mm 0.00 in0.0 mm 0.56 in14.2 mm
02:04 PM 41.5°F5.3°C 44.5°F6.9°C 78% 15.3 mph 24.6 kmh 15.3 mph24.6 kmh 29.70 in1005.8 mb 0.00 in0.0 mm 0.00 in0.0 mm 0.56 in14.2 mm
02:07 PM 41.5°F5.3°C 45.2°F7.3°C 79% 3.6 mph NNW5.8 kmh NNW 3.6 mph5.8 kmh 29.70 in1005.8 mb 0.00 in0.0 mm 0.00 in0.0 mm 0.58 in14.7 mm
02:10 PM 41.3°F5.2°C 44.8°F7.1°C 78% 4.8 mph NNW7.7 kmh NNW 4.9 mph7.9 kmh 29.70 in1005.8 mb 0.00 in0.0 mm 0.00 in0.0 mm 0.58 in14.7 mm
02:13 PM 41.8°F5.4°C 45.1°F7.3°C 79% 5.7 mph NW9.2 kmh NW 5.7 mph9.2 kmh 29.71 in1006.1 mb 0.00 in0.0 mm 0.00 in0.0 mm 0.58 in14.7 mm
02:16 PM 41.7°F5.4°C 45.1°F7.3°C 79% 6.4 mph 10.3 kmh 6.4 mph10.3 kmh 29.70 in1005.8 mb 0.00 in0.0 mm 0.00 in0.0 mm 0.58 in14.7 mm
02:19 PM 42.0°F5.6°C 45.1°F7.3°C 79% 4.0 mph NNW6.4 kmh NNW 4.0 mph6.4 kmh 29.70 in1005.8 mb 0.00 in0.0 mm 0.00 in0.0 mm 0.58 in14.7 mm
02:22 PM 42.5°F5.8°C 45.2°F7.3°C 79% 4.8 mph NW7.7 kmh NW 4.9 mph7.9 kmh 29.70 in1005.8 mb 0.00 in0.0 mm 0.00 in0.0 mm 0.58 in14.7 mm
02:25 PM 43.0°F6.1°C 45.6°F7.6°C 79% 4.3 mph NW6.9 kmh NW 4.4 mph7.1 kmh 29.70 in1005.8 mb 0.00 in0.0 mm 0.00 in0.0 mm 0.58 in14.7 mm
02:28 PM 43.3°F6.3°C 45.7°F7.6°C 79% 2.0 mph NNW3.2 kmh NNW 2.0 mph3.2 kmh 29.71 in1006.1 mb 0.00 in0.0 mm 0.00 in0.0 mm 0.58 in14.7 mm
02:31 PM 43.4°F6.3°C 45.5°F7.5°C 78% 6.4 mph NNW10.3 kmh NNW 6.4 mph10.3 kmh 29.71 in1006.1 mb 0.00 in0.0 mm 0.00 in0.0 mm 0.58 in14.7 mm
02:34 PM 43.7°F6.5°C 45.9°F7.7°C 78% 5.3 mph NW8.5 kmh NW 5.3 mph8.5 kmh 29.71 in1006.1 mb 0.00 in0.0 mm 0.00 in0.0 mm 0.58 in14.7 mm
02:37 PM 43.0°F6.1°C 44.9°F7.2°C 76% 1.6 mph NW2.6 kmh NW 1.6 mph2.6 kmh 29.71 in1006.1 mb 0.00 in0.0 mm 0.00 in0.0 mm 0.58 in14.7 mm
02:40 PM 43.6°F6.4°C 45.2°F7.3°C 77% 5.2 mph NNW8.4 kmh NNW 5.3 mph8.5 kmh 29.72 in1006.4 mb 0.00 in0.0 mm 0.00 in0.0 mm 0.58 in14.7 mm
02:43 PM 43.7°F6.5°C 45.2°F7.3°C 76% 1.9 mph WNW3.1 kmh WNW 1.9 mph3.1 kmh 29.72 in1006.4 mb 0.00 in0.0 mm 0.00 in0.0 mm 0.58 in14.7 mm
02:46 PM 44.0°F6.7°C 45.4°F7.4°C 77% 4.8 mph NNW7.7 kmh NNW 4.9 mph7.9 kmh 29.72 in1006.4 mb 0.00 in0.0 mm 0.00 in0.0 mm 0.58 in14.7 mm
02:49 PM 45.1°F7.3°C 45.6°F7.6°C 77% 7.7 mph NNW12.4 kmh NNW 7.8 mph12.6 kmh 29.72 in1006.4 mb 0.00 in0.0 mm 0.00 in0.0 mm 0.58 in14.7 mm
02:52 PM 44.8°F7.1°C 45.2°F7.3°C 76% 6.1 mph 9.8 kmh 6.1 mph9.8 kmh 29.72 in1006.4 mb 0.00 in0.0 mm 0.00 in0.0 mm 0.58 in14.7 mm
02:55 PM 45.2°F7.3°C 45.3°F7.4°C 76% 6.0 mph NNW9.7 kmh NNW 6.0 mph9.7 kmh 29.72 in1006.4 mb 0.00 in0.0 mm 0.00 in0.0 mm 0.58 in14.7 mm
02:58 PM 44.8°F7.1°C 44.9°F7.2°C 75% 6.0 mph WNW9.7 kmh WNW 6.1 mph9.8 kmh 29.72 in1006.4 mb 0.00 in0.0 mm 0.00 in0.0 mm 0.58 in14.7 mm
03:01 PM 45.5°F7.5°C 45.4°F7.4°C 76% 3.9 mph 6.3 kmh 3.9 mph6.3 kmh 29.72 in1006.4 mb 0.00 in0.0 mm 0.00 in0.0 mm 0.58 in14.7 mm
03:04 PM 46.6°F8.1°C 45.4°F7.4°C 76% 2.4 mph NW3.9 kmh NW 2.4 mph3.9 kmh 29.72 in1006.4 mb 0.00 in0.0 mm 0.00 in0.0 mm 0.58 in14.7 mm
03:07 PM 47.3°F8.5°C 45.5°F7.5°C 75% 6.9 mph NNW11.1 kmh NNW 6.9 mph11.1 kmh 29.72 in1006.4 mb 0.00 in0.0 mm 0.00 in0.0 mm 0.58 in14.7 mm
03:10 PM 47.3°F8.5°C 45.6°F7.6°C 76% 7.7 mph 12.4 kmh 7.8 mph12.6 kmh 29.72 in1006.4 mb 0.00 in0.0 mm 0.00 in0.0 mm 0.58 in14.7 mm
03:13 PM 47.1°F8.4°C 45.8°F7.7°C 76% 4.4 mph NNW7.1 kmh NNW 4.4 mph7.1 kmh 29.72 in1006.4 mb 0.00 in0.0 mm 0.00 in0.0 mm 0.58 in14.7 mm
03:16 PM 46.6°F8.1°C 45.0°F7.2°C 74% 3.2 mph NNW5.1 kmh NNW 3.3 mph5.3 kmh 29.72 in1006.4 mb 0.00 in0.0 mm 0.00 in0.0 mm 0.58 in14.7 mm
03:19 PM 46.9°F8.3°C 45.0°F7.2°C 74% 7.7 mph NW12.4 kmh NW 7.7 mph12.4 kmh 29.72 in1006.4 mb 0.00 in0.0 mm 0.00 in0.0 mm 0.58 in14.7 mm
03:22 PM 47.0°F8.3°C 44.6°F7.0°C 73% 4.4 mph 7.1 kmh 4.5 mph7.2 kmh 29.72 in1006.4 mb 0.00 in0.0 mm 0.00 in0.0 mm 0.58 in14.7 mm
03:25 PM 47.2°F8.4°C 44.5°F6.9°C 73% 4.4 mph WNW7.1 kmh WNW 4.4 mph7.1 kmh 29.73 in1006.8 mb 0.00 in0.0 mm 0.00 in0.0 mm 0.58 in14.7 mm
03:28 PM 47.3°F8.5°C 43.8°F6.6°C 71% 6.5 mph NW10.5 kmh NW 6.5 mph10.5 kmh 29.72 in1006.4 mb 0.00 in0.0 mm 0.00 in0.0 mm 0.58 in14.7 mm
03:31 PM 47.1°F8.4°C 43.6°F6.4°C 71% 7.7 mph 12.4 kmh 7.7 mph12.4 kmh 29.73 in1006.8 mb 0.00 in0.0 mm 0.00 in0.0 mm 0.58 in14.7 mm
03:34 PM 46.6°F8.1°C 43.7°F6.5°C 71% 6.8 mph NNW10.9 kmh NNW 6.9 mph11.1 kmh 29.73 in1006.8 mb 0.00 in0.0 mm 0.00 in0.0 mm 0.58 in14.7 mm
03:37 PM 46.5°F8.1°C 42.7°F5.9°C 69% 9.6 mph NNE15.4 kmh NNE 9.8 mph15.8 kmh 29.74 in1007.1 mb 0.00 in0.0 mm 0.00 in0.0 mm 0.58 in14.7 mm
03:40 PM 46.3°F7.9°C 42.7°F5.9°C 70% 9.3 mph 15.0 kmh 9.4 mph15.1 kmh 29.74 in1007.1 mb 0.00 in0.0 mm 0.00 in0.0 mm 0.58 in14.7 mm
03:43 PM 46.2°F7.9°C 43.2°F6.2°C 71% 7.7 mph NNW12.4 kmh NNW 7.8 mph12.6 kmh 29.74 in1007.1 mb 0.00 in0.0 mm 0.00 in0.0 mm 0.58 in14.7 mm
03:46 PM 46.1°F7.8°C 43.3°F6.3°C 71% 6.6 mph 10.6 kmh 6.6 mph10.6 kmh 29.74 in1007.1 mb 0.00 in0.0 mm 0.00 in0.0 mm 0.58 in14.7 mm
03:49 PM 46.4°F8.0°C 43.1°F6.2°C 70% 8.5 mph NW13.7 kmh NW 8.6 mph13.8 kmh 29.74 in1007.1 mb 0.00 in0.0 mm 0.00 in0.0 mm 0.58 in14.7 mm
03:52 PM 46.2°F7.9°C 42.9°F6.1°C 70% 7.7 mph NNW12.4 kmh NNW 7.7 mph12.4 kmh 29.74 in1007.1 mb 0.00 in0.0 mm 0.00 in0.0 mm 0.58 in14.7 mm
03:55 PM 46.1°F7.8°C 42.9°F6.1°C 70% 7.3 mph 11.7 kmh 7.4 mph11.9 kmh 29.74 in1007.1 mb 0.00 in0.0 mm 0.00 in0.0 mm 0.58 in14.7 mm
03:58 PM 46.1°F7.8°C 43.0°F6.1°C 70% 5.2 mph NNW8.4 kmh NNW 5.3 mph8.5 kmh 29.74 in1007.1 mb 0.00 in0.0 mm 0.00 in0.0 mm 0.58 in14.7 mm
04:01 PM 45.8°F7.7°C 42.9°F6.1°C 70% 11.7 mph NW18.8 kmh NW 11.8 mph19.0 kmh 29.75 in1007.5 mb 0.00 in0.0 mm 0.00 in0.0 mm 0.58 in14.7 mm
04:04 PM 45.6°F7.6°C 43.2°F6.2°C 71% 6.1 mph 9.8 kmh 6.1 mph9.8 kmh 29.76 in1007.8 mb 0.00 in0.0 mm 0.00 in0.0 mm 0.58 in14.7 mm
04:07 PM 45.1°F7.3°C 43.8°F6.6°C 73% 6.7 mph NNW10.8 kmh NNW 6.8 mph10.9 kmh 29.76 in1007.8 mb 0.00 in0.0 mm 0.00 in0.0 mm 0.58 in14.7 mm
04:10 PM 43.7°F6.5°C 44.3°F6.8°C 75% 8.5 mph NNW13.7 kmh NNW 8.5 mph13.7 kmh 29.76 in1007.8 mb 0.00 in0.0 mm 0.00 in0.0 mm 0.58 in14.7 mm
04:13 PM 43.4°F6.3°C 44.1°F6.7°C 75% 6.2 mph NNE10.0 kmh NNE 6.3 mph10.1 kmh 29.76 in1007.8 mb 0.00 in0.0 mm 0.00 in0.0 mm 0.58 in14.7 mm
04:16 PM 42.7°F5.9°C 44.2°F6.8°C 76% 5.7 mph NNW9.2 kmh NNW 5.7 mph9.2 kmh 29.76 in1007.8 mb 0.00 in0.0 mm 0.00 in0.0 mm 0.58 in14.7 mm
04:19 PM 42.4°F5.8°C 43.9°F6.6°C 76% 8.1 mph NNW13.0 kmh NNW 8.1 mph13.0 kmh 29.77 in1008.1 mb 0.00 in0.0 mm 0.00 in0.0 mm 0.58 in14.7 mm
04:22 PM 42.5°F5.8°C 44.0°F6.7°C 77% 4.4 mph NNW7.1 kmh NNW 4.4 mph7.1 kmh 29.77 in1008.1 mb 0.00 in0.0 mm 0.00 in0.0 mm 0.58 in14.7 mm
04:25 PM 42.8°F6.0°C 43.8°F6.6°C 77% 8.0 mph NNW12.9 kmh NNW 8.0 mph12.9 kmh 29.77 in1008.1 mb 0.00 in0.0 mm 0.00 in0.0 mm 0.58 in14.7 mm
04:28 PM 42.7°F5.9°C 44.0°F6.7°C 77% 4.4 mph NW7.1 kmh NW 4.4 mph7.1 kmh 29.77 in1008.1 mb 0.00 in0.0 mm 0.00 in0.0 mm 0.58 in14.7 mm
04:31 PM 42.4°F5.8°C 44.1°F6.7°C 78% 7.3 mph NNW11.7 kmh NNW 7.3 mph11.7 kmh 29.77 in1008.1 mb 0.00 in0.0 mm 0.00 in0.0 mm 0.58 in14.7 mm
04:34 PM 42.7°F5.9°C 43.6°F6.4°C 77% 3.6 mph NNW5.8 kmh NNW 3.6 mph5.8 kmh 29.77 in1008.1 mb 0.00 in0.0 mm 0.00 in0.0 mm 0.58 in14.7 mm
04:37 PM 42.5°F5.8°C 43.8°F6.6°C 78% 4.3 mph WNW6.9 kmh WNW 4.3 mph6.9 kmh 29.77 in1008.1 mb 0.00 in0.0 mm 0.00 in0.0 mm 0.58 in14.7 mm
04:40 PM 42.8°F6.0°C 43.6°F6.4°C 78% 11.3 mph NNW18.2 kmh NNW 11.4 mph18.3 kmh 29.77 in1008.1 mb 0.00 in0.0 mm 0.00 in0.0 mm 0.58 in14.7 mm
04:43 PM 42.8°F6.0°C 43.2°F6.2°C 78% 8.1 mph NNW13.0 kmh NNW 8.2 mph13.2 kmh 29.77 in1008.1 mb 0.00 in0.0 mm 0.00 in0.0 mm 0.58 in14.7 mm
04:46 PM 42.8°F6.0°C 43.3°F6.3°C 78% 5.2 mph NNW8.4 kmh NNW 5.2 mph8.4 kmh 29.77 in1008.1 mb 0.00 in0.0 mm 0.00 in0.0 mm 0.58 in14.7 mm
04:49 PM 42.7°F5.9°C 43.5°F6.4°C 78% 7.7 mph NW12.4 kmh NW 7.7 mph12.4 kmh 29.78 in1008.5 mb 0.00 in0.0 mm 0.00 in0.0 mm 0.58 in14.7 mm
04:52 PM 43.0°F6.1°C 43.2°F6.2°C 78% 11.7 mph NW18.8 kmh NW 11.8 mph19.0 kmh 29.79 in1008.8 mb 0.00 in0.0 mm 0.00 in0.0 mm 0.58 in14.7 mm
04:55 PM 42.8°F6.0°C 43.3°F6.3°C 77% 7.5 mph 12.1 kmh 7.6 mph12.2 kmh 29.79 in1008.8 mb 0.00 in0.0 mm 0.00 in0.0 mm 0.58 in14.7 mm
04:58 PM 42.8°F6.0°C 43.0°F6.1°C 77% 4.9 mph NW7.9 kmh NW 4.9 mph7.9 kmh 29.79 in1008.8 mb 0.00 in0.0 mm 0.00 in0.0 mm 0.58 in14.7 mm
05:01 PM 42.7°F5.9°C 43.3°F6.3°C 77% 4.0 mph NNW6.4 kmh NNW 4.0 mph6.4 kmh 29.79 in1008.8 mb 0.00 in0.0 mm 0.00 in0.0 mm 0.58 in14.7 mm
05:04 PM 42.8°F6.0°C 43.1°F6.2°C 77% 6.8 mph 10.9 kmh 6.8 mph10.9 kmh 29.79 in1008.8 mb 0.00 in0.0 mm 0.00 in0.0 mm 0.58 in14.7 mm
05:07 PM 43.0°F6.1°C 43.1°F6.2°C 77% 2.8 mph NNW4.5 kmh NNW 2.9 mph4.7 kmh 29.79 in1008.8 mb 0.00 in0.0 mm 0.00 in0.0 mm 0.58 in14.7 mm
05:10 PM 43.1°F6.2°C 42.9°F6.1°C 77% 6.1 mph NNW9.8 kmh NNW 6.2 mph10.0 kmh 29.79 in1008.8 mb 0.00 in0.0 mm 0.00 in0.0 mm 0.58 in14.7 mm
05:16 PM 43.0°F6.1°C 43.4°F6.3°C 77% 4.8 mph NNW7.7 kmh NNW 4.8 mph7.7 kmh 29.79 in1008.8 mb 0.00 in0.0 mm 0.00 in0.0 mm 0.58 in14.7 mm
05:19 PM 42.7°F5.9°C 43.1°F6.2°C 77% 3.6 mph NNW5.8 kmh NNW 3.6 mph5.8 kmh 29.80 in1009.1 mb 0.00 in0.0 mm 0.00 in0.0 mm 0.58 in14.7 mm
05:22 PM 42.8°F6.0°C 43.2°F6.2°C 77% 2.0 mph NNW3.2 kmh NNW 2.0 mph3.2 kmh 29.80 in1009.1 mb 0.00 in0.0 mm 0.00 in0.0 mm 0.58 in14.7 mm
05:25 PM 42.9°F6.1°C 43.0°F6.1°C 77% 6.4 mph NNW10.3 kmh NNW 6.4 mph10.3 kmh 29.80 in1009.1 mb 0.00 in0.0 mm 0.00 in0.0 mm 0.58 in14.7 mm
05:28 PM 43.0°F6.1°C 43.2°F6.2°C 77% 2.4 mph W3.9 kmh W 2.4 mph3.9 kmh 29.81 in1009.5 mb 0.00 in0.0 mm 0.00 in0.0 mm 0.58 in14.7 mm
05:31 PM 42.7°F5.9°C 43.7°F6.5°C 78% 1.2 mph NNW1.9 kmh NNW 1.2 mph1.9 kmh 29.81 in1009.5 mb 0.00 in0.0 mm 0.00 in0.0 mm 0.58 in14.7 mm
05:34 PM 42.7°F5.9°C 43.5°F6.4°C 78% 2.4 mph NE3.9 kmh NE 2.4 mph3.9 kmh 29.81 in1009.5 mb 0.00 in0.0 mm 0.00 in0.0 mm 0.58 in14.7 mm
05:37 PM 42.7°F5.9°C 43.5°F6.4°C 78% 2.4 mph E3.9 kmh E 2.4 mph3.9 kmh 29.80 in1009.1 mb 0.00 in0.0 mm 0.00 in0.0 mm 0.58 in14.7 mm
05:40 PM 42.6°F5.9°C 43.5°F6.4°C 78% 1.6 mph NNW2.6 kmh NNW 1.6 mph2.6 kmh 29.81 in1009.5 mb 0.00 in0.0 mm 0.00 in0.0 mm 0.58 in14.7 mm
05:43 PM 42.6°F5.9°C 43.6°F6.4°C 78% 2.8 mph NE4.5 kmh NE 2.8 mph4.5 kmh 29.81 in1009.5 mb 0.00 in0.0 mm 0.00 in0.0 mm 0.58 in14.7 mm
05:46 PM 42.5°F5.8°C 43.8°F6.6°C 79% 0.8 mph E1.3 kmh E 0.8 mph1.3 kmh 29.81 in1009.5 mb 0.00 in0.0 mm 0.00 in0.0 mm 0.58 in14.7 mm
05:49 PM 41.5°F5.3°C 43.8°F6.6°C 80% 7.5 mph NE12.1 kmh NE 7.6 mph12.2 kmh 29.82 in1009.8 mb 0.00 in0.0 mm 0.00 in0.0 mm 0.58 in14.7 mm
05:52 PM 39.8°F4.3°C 43.5°F6.4°C 80% 10.8 mph NE17.4 kmh NE 10.9 mph17.5 kmh 29.81 in1009.5 mb 0.00 in0.0 mm 0.00 in0.0 mm 0.58 in14.7 mm
05:55 PM 39.8°F4.3°C 43.8°F6.6°C 81% 2.8 mph 4.5 kmh 2.9 mph4.7 kmh 29.82 in1009.8 mb 0.00 in0.0 mm 0.00 in0.0 mm 0.60 in15.2 mm
05:58 PM 39.8°F4.3°C 43.8°F6.6°C 81% 2.0 mph 3.2 kmh 2.0 mph3.2 kmh 29.82 in1009.8 mb 0.00 in0.0 mm 0.00 in0.0 mm 0.60 in15.2 mm
06:01 PM 39.3°F4.1°C 42.8°F6.0°C 80% 4.8 mph 7.7 kmh 4.8 mph7.7 kmh 29.82 in1009.8 mb 0.00 in0.0 mm 0.00 in0.0 mm 0.60 in15.2 mm
06:04 PM 39.4°F4.1°C 43.4°F6.3°C 82% 2.8 mph NNE4.5 kmh NNE 2.8 mph4.5 kmh 29.83 in1010.2 mb 0.00 in0.0 mm 0.00 in0.0 mm 0.60 in15.2 mm
06:07 PM 39.3°F4.1°C 43.1°F6.2°C 81% 6.5 mph NNW10.5 kmh NNW 6.5 mph10.5 kmh 29.83 in1010.2 mb 0.00 in0.0 mm 0.00 in0.0 mm 0.60 in15.2 mm
06:10 PM 39.4°F4.1°C 43.0°F6.1°C 81% 9.3 mph 15.0 kmh 9.4 mph15.1 kmh 29.83 in1010.2 mb 0.00 in0.0 mm 0.00 in0.0 mm 0.62 in15.7 mm
06:13 PM 39.3°F4.1°C 43.1°F6.2°C 82% 6.5 mph 10.5 kmh 6.5 mph10.5 kmh 29.84 in1010.5 mb 0.00 in0.0 mm 0.00 in0.0 mm 0.62 in15.7 mm
06:16 PM 39.2°F4.0°C 43.1°F6.2°C 82% 8.1 mph NNW13.0 kmh NNW 8.2 mph13.2 kmh 29.84 in1010.5 mb 0.00 in0.0 mm 0.00 in0.0 mm 0.62 in15.7 mm
06:19 PM 39.2°F4.0°C 43.0°F6.1°C 82% 4.4 mph 7.1 kmh 4.4 mph7.1 kmh 29.84 in1010.5 mb 0.00 in0.0 mm 0.00 in0.0 mm 0.62 in15.7 mm
06:22 PM 39.2°F4.0°C 42.9°F6.1°C 81% 5.3 mph 8.5 kmh 5.3 mph8.5 kmh 29.84 in1010.5 mb 0.00 in0.0 mm 0.00 in0.0 mm 0.62 in15.7 mm
06:25 PM 39.2°F4.0°C 43.0°F6.1°C 81% 3.9 mph NW6.3 kmh NW 4.0 mph6.4 kmh 29.84 in1010.5 mb 0.00 in0.0 mm 0.00 in0.0 mm 0.62 in15.7 mm
06:28 PM 39.3°F4.1°C 42.8°F6.0°C 81% 0.4 mph NNW0.6 kmh NNW 0.4 mph0.6 kmh 29.84 in1010.5 mb 0.00 in0.0 mm 0.00 in0.0 mm 0.62 in15.7 mm
06:31 PM 39.1°F3.9°C 43.1°F6.2°C 82% 2.8 mph NNW4.5 kmh NNW 2.8 mph4.5 kmh 29.84 in1010.5 mb 0.00 in0.0 mm 0.00 in0.0 mm 0.62 in15.7 mm
06:37 PM 39.2°F4.0°C 43.0°F6.1°C 82% 3.6 mph NW5.8 kmh NW 3.7 mph6.0 kmh 29.84 in1010.5 mb 0.00 in0.0 mm 0.00 in0.0 mm 0.62 in15.7 mm
06:40 PM 39.2°F4.0°C 43.0°F6.1°C 82% 4.4 mph NNW7.1 kmh NNW 4.4 mph7.1 kmh 29.84 in1010.5 mb 0.00 in0.0 mm 0.00 in0.0 mm 0.62 in15.7 mm
06:43 PM 39.1°F3.9°C 43.1°F6.2°C 82% 4.2 mph NW6.8 kmh NW 4.3 mph6.9 kmh 29.84 in1010.5 mb 0.00 in0.0 mm 0.00 in0.0 mm 0.62 in15.7 mm
06:46 PM 39.1°F3.9°C 42.9°F6.1°C 82% 2.8 mph NNW4.5 kmh NNW 2.9 mph4.7 kmh 29.84 in1010.5 mb 0.00 in0.0 mm 0.00 in0.0 mm 0.62 in15.7 mm
06:52 PM 39.0°F3.9°C 42.9°F6.1°C 82% Calm Calm -- 29.85 in1010.8 mb 0.00 in0.0 mm 0.00 in0.0 mm 0.62 in15.7 mm
06:55 PM 39.1°F3.9°C 42.9°F6.1°C 82% 0.4 mph NW0.6 kmh NW 0.4 mph0.6 kmh 29.86 in1011.2 mb 0.00 in0.0 mm 0.00 in0.0 mm 0.62 in15.7 mm
06:58 PM 39.0°F3.9°C 42.5°F5.8°C 82% 3.2 mph NW5.1 kmh NW 3.2 mph5.1 kmh 29.85 in1010.8 mb 0.00 in0.0 mm 0.00 in0.0 mm 0.62 in15.7 mm
07:04 PM 39.0°F3.9°C 42.6°F5.9°C 82% 7.3 mph NNW11.7 kmh NNW 7.3 mph11.7 kmh 29.86 in1011.2 mb 0.00 in0.0 mm 0.00 in0.0 mm 0.62 in15.7 mm
07:07 PM 38.9°F3.8°C 42.5°F5.8°C 82% 4.0 mph NW6.4 kmh NW 4.1 mph6.6 kmh 29.86 in1011.2 mb 0.00 in0.0 mm 0.00 in0.0 mm 0.62 in15.7 mm
07:10 PM 38.8°F3.8°C 42.5°F5.8°C 82% 3.2 mph NNW5.1 kmh NNW 3.3 mph5.3 kmh 29.86 in1011.2 mb 0.00 in0.0 mm 0.00 in0.0 mm 0.62 in15.7 mm
07:13 PM 38.8°F3.8°C 42.7°F5.9°C 83% 3.2 mph NW5.1 kmh NW 3.2 mph5.1 kmh 29.86 in1011.2 mb 0.00 in0.0 mm 0.00 in0.0 mm 0.62 in15.7 mm
07:16 PM 38.8°F3.8°C 42.5°F5.8°C 82% 2.8 mph NW4.5 kmh NW 2.9 mph4.7 kmh 29.86 in1011.2 mb 0.00 in0.0 mm 0.00 in0.0 mm 0.62 in15.7 mm
07:19 PM 38.6°F3.7°C 42.7°F5.9°C 83% 1.6 mph 2.6 kmh 1.6 mph2.6 kmh 29.86 in1011.2 mb 0.00 in0.0 mm 0.00 in0.0 mm 0.62 in15.7 mm
07:22 PM 38.6°F3.7°C 42.4°F5.8°C 83% 3.6 mph NW5.8 kmh NW 3.6 mph5.8 kmh 29.86 in1011.2 mb 0.00 in0.0 mm 0.00 in0.0 mm 0.62 in15.7 mm
07:25 PM 38.5°F3.6°C 42.5°F5.8°C 83% 4.0 mph NNW6.4 kmh NNW 4.1 mph6.6 kmh 29.86 in1011.2 mb 0.00 in0.0 mm 0.00 in0.0 mm 0.62 in15.7 mm
07:28 PM 38.6°F3.7°C 42.6°F5.9°C 83% 4.0 mph NNW6.4 kmh NNW 4.1 mph6.6 kmh 29.86 in1011.2 mb 0.00 in0.0 mm 0.00 in0.0 mm 0.62 in15.7 mm
07:31 PM 38.5°F3.6°C 42.5°F5.8°C 83% 4.8 mph NNW7.7 kmh NNW 4.8 mph7.7 kmh 29.86 in1011.2 mb 0.00 in0.0 mm 0.00 in0.0 mm 0.62 in15.7 mm
07:34 PM 38.6°F3.7°C 42.7°F5.9°C 84% 1.6 mph NW2.6 kmh NW 1.6 mph2.6 kmh 29.86 in1011.2 mb 0.00 in0.0 mm 0.00 in0.0 mm 0.62 in15.7 mm
07:37 PM 39.0°F3.9°C 42.6°F5.9°C 84% 3.2 mph 5.1 kmh 3.3 mph5.3 kmh 29.86 in1011.2 mb 0.00 in0.0 mm 0.00 in0.0 mm 0.62 in15.7 mm
07:40 PM 39.1°F3.9°C 42.6°F5.9°C 84% 5.2 mph 8.4 kmh 5.2 mph8.4 kmh 29.87 in1011.5 mb 0.00 in0.0 mm 0.00 in0.0 mm 0.62 in15.7 mm
07:43 PM 39.0°F3.9°C 42.3°F5.7°C 84% 4.8 mph NNW7.7 kmh NNW 4.8 mph7.7 kmh 29.87 in1011.5 mb 0.00 in0.0 mm 0.00 in0.0 mm 0.62 in15.7 mm
07:46 PM 39.0°F3.9°C 42.7°F5.9°C 85% 3.2 mph NNW5.1 kmh NNW 3.2 mph5.1 kmh 29.87 in1011.5 mb 0.00 in0.0 mm 0.00 in0.0 mm 0.62 in15.7 mm
07:49 PM 38.8°F3.8°C 42.6°F5.9°C 85% 4.4 mph NNW7.1 kmh NNW 4.5 mph7.2 kmh 29.87 in1011.5 mb 0.00 in0.0 mm 0.00 in0.0 mm 0.62 in15.7 mm
07:52 PM 38.9°F3.8°C 42.3°F5.7°C 85% 7.7 mph 12.4 kmh 7.7 mph12.4 kmh 29.87 in1011.5 mb 0.00 in0.0 mm 0.00 in0.0 mm 0.62 in15.7 mm
07:55 PM 38.9°F3.8°C 42.5°F5.8°C 85% 2.4 mph 3.9 kmh 2.4 mph3.9 kmh 29.87 in1011.5 mb 0.00 in0.0 mm 0.00 in0.0 mm 0.62 in15.7 mm
07:58 PM 38.9°F3.8°C 42.4°F5.8°C 85% 5.2 mph NW8.4 kmh NW 5.2 mph8.4 kmh 29.87 in1011.5 mb 0.00 in0.0 mm 0.00 in0.0 mm 0.62 in15.7 mm
08:01 PM 39.1°F3.9°C 42.6°F5.9°C 85% 5.7 mph 9.2 kmh 5.7 mph9.2 kmh 29.87 in1011.5 mb 0.00 in0.0 mm 0.00 in0.0 mm 0.62 in15.7 mm
08:04 PM 39.3°F4.1°C 42.5°F5.8°C 86% 0.4 mph NW0.6 kmh NW 0.4 mph0.6 kmh 29.87 in1011.5 mb 0.00 in0.0 mm 0.00 in0.0 mm 0.62 in15.7 mm
08:07 PM 39.2°F4.0°C 42.4°F5.8°C 85% 6.0 mph NNW9.7 kmh NNW 6.1 mph9.8 kmh 29.88 in1011.9 mb 0.00 in0.0 mm 0.00 in0.0 mm 0.62 in15.7 mm
08:10 PM 38.5°F3.6°C 41.7°F5.4°C 84% 11.8 mph NNE19.0 kmh NNE 11.9 mph19.2 kmh 29.88 in1011.9 mb 0.00 in0.0 mm 0.00 in0.0 mm 0.64 in16.3 mm
08:13 PM 38.5°F3.6°C 42.3°F5.7°C 84% 5.2 mph NNW8.4 kmh NNW 5.2 mph8.4 kmh 29.88 in1011.9 mb 0.00 in0.0 mm 0.00 in0.0 mm 0.64 in16.3 mm
08:16 PM 38.5°F3.6°C 42.4°F5.8°C 85% 5.0 mph NNE8.0 kmh NNE 5.1 mph8.2 kmh 29.89 in1012.2 mb 0.00 in0.0 mm 0.00 in0.0 mm 0.64 in16.3 mm
08:19 PM 38.5°F3.6°C 42.3°F5.7°C 84% 6.8 mph 10.9 kmh 6.8 mph10.9 kmh 29.89 in1012.2 mb 0.00 in0.0 mm 0.00 in0.0 mm 0.64 in16.3 mm
08:22 PM 38.5°F3.6°C 42.2°F5.7°C 85% 5.7 mph 9.2 kmh 5.7 mph9.2 kmh 29.89 in1012.2 mb 0.00 in0.0 mm 0.00 in0.0 mm 0.64 in16.3 mm
08:25 PM 38.3°F3.5°C 42.3°F5.7°C 85% 3.9 mph NW6.3 kmh NW 3.9 mph6.3 kmh 29.89 in1012.2 mb 0.00 in0.0 mm 0.00 in0.0 mm 0.64 in16.3 mm
08:28 PM 38.2°F3.4°C 42.2°F5.7°C 85% 2.8 mph 4.5 kmh 2.8 mph4.5 kmh 29.89 in1012.2 mb 0.00 in0.0 mm 0.00 in0.0 mm 0.64 in16.3 mm
08:31 PM 38.2°F3.4°C 42.3°F5.7°C 85% 2.0 mph 3.2 kmh 2.0 mph3.2 kmh 29.89 in1012.2 mb 0.00 in0.0 mm 0.00 in0.0 mm 0.64 in16.3 mm
08:34 PM 37.9°F3.3°C 42.4°F5.8°C 84% 2.3 mph NNW3.7 kmh NNW 2.3 mph3.7 kmh 29.89 in1012.2 mb 0.00 in0.0 mm 0.00 in0.0 mm 0.64 in16.3 mm
08:37 PM 38.2°F3.4°C 42.3°F5.7°C 85% 2.8 mph 4.5 kmh 2.9 mph4.7 kmh 29.89 in1012.2 mb 0.00 in0.0 mm 0.00 in0.0 mm 0.64 in16.3 mm
08:40 PM 37.9°F3.3°C 42.2°F5.7°C 85% 2.0 mph 3.2 kmh 2.0 mph3.2 kmh 29.89 in1012.2 mb 0.00 in0.0 mm 0.00 in0.0 mm 0.64 in16.3 mm
08:43 PM 38.0°F3.3°C 42.4°F5.8°C 85% 3.1 mph 5.0 kmh 3.1 mph5.0 kmh 29.89 in1012.2 mb 0.00 in0.0 mm 0.00 in0.0 mm 0.64 in16.3 mm
08:46 PM 38.0°F3.3°C 41.8°F5.4°C 84% 2.4 mph NW3.9 kmh NW 2.4 mph3.9 kmh 29.89 in1012.2 mb 0.00 in0.0 mm 0.00 in0.0 mm 0.64 in16.3 mm
08:49 PM 38.0°F3.3°C 42.1°F5.6°C 85% 3.2 mph 5.1 kmh 3.2 mph5.1 kmh 29.89 in1012.2 mb 0.00 in0.0 mm 0.00 in0.0 mm 0.64 in16.3 mm
08:52 PM 37.9°F3.3°C 42.2°F5.7°C 86% 6.5 mph 10.5 kmh 6.6 mph10.6 kmh 29.89 in1012.2 mb 0.00 in0.0 mm 0.00 in0.0 mm 0.64 in16.3 mm
08:55 PM 37.7°F3.2°C 42.0°F5.6°C 86% 4.4 mph NNW7.1 kmh NNW 4.5 mph7.2 kmh 29.89 in1012.2 mb 0.00 in0.0 mm 0.00 in0.0 mm 0.64 in16.3 mm
08:58 PM 38.0°F3.3°C 42.3°F5.7°C 86% 3.6 mph NNW5.8 kmh NNW 3.7 mph6.0 kmh 29.89 in1012.2 mb 0.00 in0.0 mm 0.00 in0.0 mm 0.64 in16.3 mm
09:01 PM 37.9°F3.3°C 42.1°F5.6°C 86% 4.7 mph 7.6 kmh 4.7 mph7.6 kmh 29.90 in1012.5 mb 0.00 in0.0 mm 0.00 in0.0 mm 0.64 in16.3 mm
09:04 PM 37.7°F3.2°C 42.2°F5.7°C 86% 2.8 mph NW4.5 kmh NW 2.8 mph4.5 kmh 29.89 in1012.2 mb 0.00 in0.0 mm 0.00 in0.0 mm 0.64 in16.3 mm
09:07 PM 37.7°F3.2°C 42.0°F5.6°C 86% 2.8 mph NNW4.5 kmh NNW 2.9 mph4.7 kmh 29.90 in1012.5 mb 0.00 in0.0 mm 0.00 in0.0 mm 0.64 in16.3 mm
09:10 PM 37.5°F3.1°C 42.1°F5.6°C 86% 4.9 mph NNW7.9 kmh NNW 4.9 mph7.9 kmh 29.90 in1012.5 mb 0.00 in0.0 mm 0.00 in0.0 mm 0.64 in16.3 mm
09:16 PM 37.7°F3.2°C 41.9°F5.5°C 86% 5.1 mph NNW8.2 kmh NNW 5.1 mph8.2 kmh 29.91 in1012.9 mb 0.00 in0.0 mm 0.00 in0.0 mm 0.64 in16.3 mm
09:22 PM 37.9°F3.3°C 42.1°F5.6°C 86% 4.5 mph NNE7.2 kmh NNE 4.5 mph7.2 kmh 29.90 in1012.5 mb 0.00 in0.0 mm 0.00 in0.0 mm 0.64 in16.3 mm
09:25 PM 38.1°F3.4°C 41.8°F5.4°C 86% 4.0 mph NNW6.4 kmh NNW 4.1 mph6.6 kmh 29.91 in1012.9 mb 0.00 in0.0 mm 0.00 in0.0 mm 0.64 in16.3 mm
09:28 PM 37.7°F3.2°C 42.1°F5.6°C 86% 2.0 mph 3.2 kmh 2.0 mph3.2 kmh 29.91 in1012.9 mb 0.00 in0.0 mm 0.00 in0.0 mm 0.64 in16.3 mm
09:31 PM 37.7°F3.2°C 41.6°F5.3°C 85% 3.2 mph NNW5.1 kmh NNW 3.3 mph5.3 kmh 29.91 in1012.9 mb 0.00 in0.0 mm 0.00 in0.0 mm 0.64 in16.3 mm
09:34 PM 37.6°F3.1°C 42.0°F5.6°C 86% 4.4 mph NW7.1 kmh NW 4.5 mph7.2 kmh 29.91 in1012.9 mb 0.00 in0.0 mm 0.00 in0.0 mm 0.64 in16.3 mm
09:37 PM 37.6°F3.1°C 41.8°F5.4°C 86% 3.2 mph NW5.1 kmh NW 3.3 mph5.3 kmh 29.91 in1012.9 mb 0.00 in0.0 mm 0.00 in0.0 mm 0.64 in16.3 mm
09:40 PM 37.4°F3.0°C 41.7°F5.4°C 86% 3.6 mph NNW5.8 kmh NNW 3.6 mph5.8 kmh 29.91 in1012.9 mb 0.00 in0.0 mm 0.00 in0.0 mm 0.64 in16.3 mm
09:43 PM 37.5°F3.1°C 41.6°F5.3°C 86% 2.8 mph NNW4.5 kmh NNW 2.9 mph4.7 kmh 29.91 in1012.9 mb 0.00 in0.0 mm 0.00 in0.0 mm 0.64 in16.3 mm
09:46 PM 37.5°F3.1°C 41.8°F5.4°C 86% 2.8 mph 4.5 kmh 2.9 mph4.7 kmh 29.91 in1012.9 mb 0.00 in0.0 mm 0.00 in0.0 mm 0.64 in16.3 mm
09:49 PM 37.4°F3.0°C 41.6°F5.3°C 86% 1.6 mph 2.6 kmh 1.6 mph2.6 kmh 29.91 in1012.9 mb 0.00 in0.0 mm 0.00 in0.0 mm 0.64 in16.3 mm
09:52 PM 37.6°F3.1°C 41.7°F5.4°C 86% 2.8 mph 4.5 kmh 2.8 mph4.5 kmh 29.91 in1012.9 mb 0.00 in0.0 mm 0.00 in0.0 mm 0.64 in16.3 mm
09:55 PM 37.6°F3.1°C 41.7°F5.4°C 86% 3.2 mph NW5.1 kmh NW 3.2 mph5.1 kmh 29.91 in1012.9 mb 0.00 in0.0 mm 0.00 in0.0 mm 0.64 in16.3 mm
09:58 PM 37.6°F3.1°C 41.7°F5.4°C 86% 3.9 mph NNW6.3 kmh NNW 3.9 mph6.3 kmh 29.91 in1012.9 mb 0.00 in0.0 mm 0.00 in0.0 mm 0.64 in16.3 mm
10:01 PM 37.7°F3.2°C 41.5°F5.3°C 86% 2.0 mph NNW3.2 kmh NNW 2.0 mph3.2 kmh 29.91 in1012.9 mb 0.00 in0.0 mm 0.00 in0.0 mm 0.64 in16.3 mm
10:04 PM 37.5°F3.1°C 41.7°F5.4°C 87% 4.0 mph NNW6.4 kmh NNW 4.0 mph6.4 kmh 29.91 in1012.9 mb 0.00 in0.0 mm 0.00 in0.0 mm 0.64 in16.3 mm
10:07 PM 37.6°F3.1°C 41.7°F5.4°C 87% 1.5 mph NNE2.4 kmh NNE 1.6 mph2.6 kmh 29.91 in1012.9 mb 0.00 in0.0 mm 0.00 in0.0 mm 0.64 in16.3 mm
10:10 PM 37.6°F3.1°C 41.5°F5.3°C 86% 3.2 mph 5.1 kmh 3.3 mph5.3 kmh 29.91 in1012.9 mb 0.00 in0.0 mm 0.00 in0.0 mm 0.64 in16.3 mm
10:13 PM 37.5°F3.1°C 41.7°F5.4°C 87% 2.8 mph NNW4.5 kmh NNW 2.8 mph4.5 kmh 29.91 in1012.9 mb 0.00 in0.0 mm 0.00 in0.0 mm 0.64 in16.3 mm
10:16 PM 37.2°F2.9°C 41.7°F5.4°C 86% Calm Calm -- 29.91 in1012.9 mb 0.00 in0.0 mm 0.00 in0.0 mm 0.64 in16.3 mm
10:19 PM 37.0°F2.8°C 41.5°F5.3°C 86% 2.4 mph NNW3.9 kmh NNW 2.4 mph3.9 kmh 29.91 in1012.9 mb 0.00 in0.0 mm 0.00 in0.0 mm 0.64 in16.3 mm
10:22 PM 36.7°F2.6°C 41.3°F5.2°C 86% 1.2 mph NNW1.9 kmh NNW 1.2 mph1.9 kmh 29.91 in1012.9 mb 0.00 in0.0 mm 0.00 in0.0 mm 0.64 in16.3 mm
10:25 PM 36.6°F2.6°C 41.3°F5.2°C 86% 1.5 mph NNW2.4 kmh NNW 1.6 mph2.6 kmh 29.91 in1012.9 mb 0.00 in0.0 mm 0.00 in0.0 mm 0.64 in16.3 mm
10:28 PM 36.7°F2.6°C 41.5°F5.3°C 86% 2.0 mph NNW3.2 kmh NNW 2.0 mph3.2 kmh 29.91 in1012.9 mb 0.00 in0.0 mm 0.00 in0.0 mm 0.64 in16.3 mm
10:31 PM 36.8°F2.7°C 41.1°F5.1°C 86% 2.4 mph 3.9 kmh 2.4 mph3.9 kmh 29.91 in1012.9 mb 0.00 in0.0 mm 0.00 in0.0 mm 0.64 in16.3 mm
10:34 PM 36.8°F2.7°C 41.2°F5.1°C 86% 1.9 mph 3.1 kmh 2.0 mph3.2 kmh 29.91 in1012.9 mb 0.00 in0.0 mm 0.00 in0.0 mm 0.64 in16.3 mm
10:37 PM 37.1°F2.8°C 41.3°F5.2°C 86% 2.8 mph NNW4.5 kmh NNW 2.8 mph4.5 kmh 29.91 in1012.9 mb 0.00 in0.0 mm 0.00 in0.0 mm 0.64 in16.3 mm
10:40 PM 37.4°F3.0°C 41.2°F5.1°C 86% 3.2 mph 5.1 kmh 3.2 mph5.1 kmh 29.91 in1012.9 mb 0.00 in0.0 mm 0.00 in0.0 mm 0.64 in16.3 mm
10:43 PM 37.3°F2.9°C 41.3°F5.2°C 87% 2.4 mph NNE3.9 kmh NNE 2.4 mph3.9 kmh 29.91 in1012.9 mb 0.00 in0.0 mm 0.00 in0.0 mm 0.64 in16.3 mm
10:46 PM 37.0°F2.8°C 41.3°F5.2°C 87% 3.2 mph 5.1 kmh 3.3 mph5.3 kmh 29.91 in1012.9 mb 0.00 in0.0 mm 0.00 in0.0 mm 0.64 in16.3 mm
10:49 PM 37.0°F2.8°C 41.2°F5.1°C 87% 1.6 mph NNW2.6 kmh NNW 1.6 mph2.6 kmh 29.91 in1012.9 mb 0.00 in0.0 mm 0.00 in0.0 mm 0.64 in16.3 mm
10:52 PM 36.7°F2.6°C 41.3°F5.2°C 86% 2.4 mph 3.9 kmh 2.4 mph3.9 kmh 29.91 in1012.9 mb 0.00 in0.0 mm 0.00 in0.0 mm 0.64 in16.3 mm
10:55 PM 36.8°F2.7°C 41.1°F5.1°C 87% 2.4 mph NW3.9 kmh NW 2.4 mph3.9 kmh 29.91 in1012.9 mb 0.00 in0.0 mm 0.00 in0.0 mm 0.64 in16.3 mm
10:58 PM 36.7°F2.6°C 41.3°F5.2°C 87% 1.6 mph 2.6 kmh 1.6 mph2.6 kmh 29.91 in1012.9 mb 0.00 in0.0 mm 0.00 in0.0 mm 0.64 in16.3 mm
11:01 PM 36.6°F2.6°C 41.0°F5.0°C 87% 3.2 mph 5.1 kmh 3.3 mph5.3 kmh 29.91 in1012.9 mb 0.00 in0.0 mm 0.00 in0.0 mm 0.64 in16.3 mm
11:04 PM 37.0°F2.8°C 40.9°F4.9°C 87% Calm Calm -- 29.91 in1012.9 mb 0.00 in0.0 mm 0.00 in0.0 mm 0.64 in16.3 mm
11:07 PM 37.0°F2.8°C 41.2°F5.1°C 87% 2.0 mph NNW3.2 kmh NNW 2.0 mph3.2 kmh 29.91 in1012.9 mb 0.00 in0.0 mm 0.00 in0.0 mm 0.64 in16.3 mm
11:10 PM 36.7°F2.6°C 41.1°F5.1°C 87% 1.2 mph NNW1.9 kmh NNW 1.2 mph1.9 kmh 29.91 in1012.9 mb 0.00 in0.0 mm 0.00 in0.0 mm 0.64 in16.3 mm
11:13 PM 36.6°F2.6°C 40.9°F4.9°C 87% 4.8 mph NW7.7 kmh NW 4.8 mph7.7 kmh 29.91 in1012.9 mb 0.00 in0.0 mm 0.00 in0.0 mm 0.64 in16.3 mm
11:16 PM 36.6°F2.6°C 41.1°F5.1°C 87% 0.4 mph NW0.6 kmh NW 0.4 mph0.6 kmh 29.92 in1013.2 mb 0.00 in0.0 mm 0.00 in0.0 mm 0.64 in16.3 mm
11:19 PM 36.6°F2.6°C 41.0°F5.0°C 87% 2.0 mph NW3.2 kmh NW 2.0 mph3.2 kmh 29.92 in1013.2 mb 0.00 in0.0 mm 0.00 in0.0 mm 0.64 in16.3 mm
11:22 PM 36.3°F2.4°C 40.7°F4.8°C 87% 0.4 mph NW0.6 kmh NW 0.4 mph0.6 kmh 29.93 in1013.5 mb 0.00 in0.0 mm 0.00 in0.0 mm 0.64 in16.3 mm
11:25 PM 36.3°F2.4°C 40.9°F4.9°C 87% 2.0 mph NW3.2 kmh NW 2.0 mph3.2 kmh 29.93 in1013.5 mb 0.00 in0.0 mm 0.00 in0.0 mm 0.64 in16.3 mm
11:28 PM 36.1°F2.3°C 41.1°F5.1°C 87% Calm Calm -- 29.93 in1013.5 mb 0.00 in0.0 mm 0.00 in0.0 mm 0.64 in16.3 mm
11:31 PM 35.8°F2.1°C 40.9°F4.9°C 87% 0.8 mph NW1.3 kmh NW 0.8 mph1.3 kmh 29.93 in1013.5 mb 0.00 in0.0 mm 0.00 in0.0 mm 0.64 in16.3 mm
11:34 PM 35.5°F1.9°C 40.8°F4.9°C 86% Calm Calm -- 29.93 in1013.5 mb 0.00 in0.0 mm 0.00 in0.0 mm 0.64 in16.3 mm
11:37 PM 35.4°F1.9°C 40.8°F4.9°C 86% Calm Calm -- 29.93 in1013.5 mb 0.00 in0.0 mm 0.00 in0.0 mm 0.64 in16.3 mm
11:40 PM 35.5°F1.9°C 40.6°F4.8°C 86% Calm Calm -- 29.93 in1013.5 mb 0.00 in0.0 mm 0.00 in0.0 mm 0.64 in16.3 mm
11:43 PM 35.4°F1.9°C 40.8°F4.9°C 86% 0.4 mph NW0.6 kmh NW 0.4 mph0.6 kmh 29.93 in1013.5 mb 0.00 in0.0 mm 0.00 in0.0 mm 0.64 in16.3 mm
11:46 PM 35.9°F2.2°C 40.5°F4.7°C 86% Calm Calm -- 29.93 in1013.5 mb 0.00 in0.0 mm 0.00 in0.0 mm 0.64 in16.3 mm
11:49 PM 35.6°F2.0°C 40.4°F4.7°C 86% 0.4 mph NNW0.6 kmh NNW 0.4 mph0.6 kmh 29.93 in1013.5 mb 0.00 in0.0 mm 0.00 in0.0 mm 0.64 in16.3 mm
11:52 PM 36.4°F2.4°C 40.7°F4.8°C 87% 2.4 mph 3.9 kmh 2.4 mph3.9 kmh 29.93 in1013.5 mb 0.00 in0.0 mm 0.00 in0.0 mm 0.64 in16.3 mm
11:55 PM 36.4°F2.4°C 40.7°F4.8°C 87% Calm Calm -- 29.93 in1013.5 mb 0.00 in0.0 mm 0.00 in0.0 mm 0.64 in16.3 mm
11:58 PM 36.4°F2.4°C 40.7°F4.8°C 87% 1.6 mph NNW2.6 kmh NNW 1.6 mph2.6 kmh 29.94 in1013.9 mb 0.00 in0.0 mm 0.00 in0.0 mm 0.64 in16.3 mm